FBU70A LFPO-FMEE
Flight info
| Callsign | FBU70A |
|---|---|
| Flight time | 10h 17m |
| Altitude | 33000 |
| Route | OKASI DCT OKEKO DCT MOU DCT MADIV DCT MOKIP DCT TUFTA DCT GEVEA DCT ORSUD DCT BIBAN DCT EKPAL DCT RUTOM DCT SALUN/N0488F350 N705 BOPIX N710 TAKRI P751 LXR M999 JDW G650 RASKA/N0499F360 G650 ULONI/N0499F350 UV790 EDITO/N0495F370 UV790 SB UR775 MOGDU UN304 APKAK/N0492F380 UN304 DENLI/N0490F390 UN304 UVENA UVENA2R |
| Aircraft | A35K/H-SABDE1E2E3GHIJ1J2J3J4J5M1P2RWXYZ/LB1D1 |
Departure
| Time | 2026-04-22 18:06 |
|---|---|
| Airport | Paris-Orly Airport (LFPO) |
Arrival
| Time | 2026-04-23 04:24 |
|---|---|
| Airport | Roland Garros Airport (FMEE) |
| Time | Latitude | Longitude | Altitude | Speed | Heading |
|---|---|---|---|---|---|
| 2026-04-22 17:21 | 48.72856 | 2.37557 | 301 ft | 0 kts | 343° |
| 2026-04-22 17:55 | 48.72836 | 2.37566 | 302 ft | 4 kts | 343° |
| 2026-04-22 17:55 | 48.72810 | 2.37578 | 299 ft | 4 kts | 343° |
| 2026-04-22 17:55 | 48.72789 | 2.37589 | 302 ft | 4 kts | 315° |
| 2026-04-22 17:56 | 48.72782 | 2.37621 | 300 ft | 4 kts | 259° |
| 2026-04-22 17:56 | 48.72788 | 2.37655 | 299 ft | 1 kts | 254° |
| 2026-04-22 17:56 | 48.72788 | 2.37656 | 300 ft | 0 kts | 254° |
| 2026-04-22 17:59 | 48.72784 | 2.37632 | 301 ft | 6 kts | 256° |
| 2026-04-22 17:59 | 48.72763 | 2.37535 | 302 ft | 14 kts | 246° |
| 2026-04-22 18:00 | 48.72736 | 2.37431 | 302 ft | 18 kts | 260° |
| 2026-04-22 18:00 | 48.72673 | 2.37197 | 300 ft | 20 kts | 197° |
| 2026-04-22 18:00 | 48.72581 | 2.37081 | 301 ft | 18 kts | 251° |
| 2026-04-22 18:00 | 48.72546 | 2.36895 | 301 ft | 19 kts | 254° |
| 2026-04-22 18:01 | 48.72510 | 2.36702 | 300 ft | 19 kts | 254° |
| 2026-04-22 18:01 | 48.72474 | 2.36507 | 302 ft | 20 kts | 254° |
| 2026-04-22 18:01 | 48.72436 | 2.36305 | 300 ft | 20 kts | 254° |
| 2026-04-22 18:01 | 48.72398 | 2.36097 | 302 ft | 21 kts | 254° |
| 2026-04-22 18:02 | 48.72358 | 2.35885 | 303 ft | 21 kts | 254° |
| 2026-04-22 18:02 | 48.72315 | 2.35671 | 303 ft | 21 kts | 240° |
| 2026-04-22 18:02 | 48.72188 | 2.35616 | 301 ft | 20 kts | 168° |
| 2026-04-22 18:02 | 48.72075 | 2.35683 | 303 ft | 16 kts | 144° |
| 2026-04-22 18:03 | 48.72044 | 2.35728 | 302 ft | 0 kts | 131° |
| 2026-04-22 18:04 | 48.72039 | 2.35737 | 303 ft | 5 kts | 129° |
| 2026-04-22 18:05 | 48.71997 | 2.35835 | 302 ft | 15 kts | 120° |
| 2026-04-22 18:05 | 48.71971 | 2.36006 | 301 ft | 19 kts | 84° |
| 2026-04-22 18:05 | 48.72013 | 2.36250 | 302 ft | 38 kts | 75° |
| 2026-04-22 18:05 | 48.72143 | 2.36970 | 301 ft | 104 kts | 75° |
| 2026-04-22 18:06 | 48.72395 | 2.38318 | 307 ft | 160 kts | 74° |
| 2026-04-22 18:06 | 48.72717 | 2.39958 | 906 ft | 162 kts | 76° |
| 2026-04-22 18:06 | 48.73029 | 2.41520 | 1672 ft | 163 kts | 75° |
| 2026-04-22 18:06 | 48.73341 | 2.43176 | 2231 ft | 165 kts | 77° |
| 2026-04-22 18:07 | 48.73637 | 2.44904 | 2629 ft | 175 kts | 77° |
| 2026-04-22 18:07 | 48.73923 | 2.46788 | 2926 ft | 193 kts | 82° |
| 2026-04-22 18:07 | 48.74066 | 2.48920 | 3159 ft | 213 kts | 86° |
| 2026-04-22 18:07 | 48.74148 | 2.51219 | 3473 ft | 228 kts | 88° |
| 2026-04-22 18:08 | 48.73927 | 2.53635 | 3951 ft | 238 kts | 109° |
| 2026-04-22 18:08 | 48.73003 | 2.55746 | 4482 ft | 249 kts | 135° |
| 2026-04-22 18:08 | 48.71528 | 2.57179 | 5101 ft | 255 kts | 150° |
| 2026-04-22 18:08 | 48.69936 | 2.58374 | 5754 ft | 257 kts | 151° |
| 2026-04-22 18:09 | 48.68324 | 2.59568 | 6410 ft | 259 kts | 151° |
| 2026-04-22 18:09 | 48.66702 | 2.60787 | 7028 ft | 262 kts | 151° |
| 2026-04-22 18:09 | 48.64978 | 2.61788 | 7544 ft | 270 kts | 165° |
| 2026-04-22 18:09 | 48.63076 | 2.61788 | 8101 ft | 281 kts | 191° |
| 2026-04-22 18:10 | 48.61271 | 2.60709 | 8707 ft | 286 kts | 204° |
| 2026-04-22 18:10 | 48.59488 | 2.59303 | 9266 ft | 291 kts | 205° |
| 2026-04-22 18:10 | 48.57693 | 2.57862 | 9917 ft | 294 kts | 204° |
| 2026-04-22 18:10 | 48.55870 | 2.56422 | 10435 ft | 300 kts | 205° |
| 2026-04-22 18:11 | 48.53970 | 2.54939 | 10718 ft | 314 kts | 205° |
| 2026-04-22 18:11 | 48.51982 | 2.53397 | 10988 ft | 329 kts | 205° |
| 2026-04-22 18:11 | 48.49901 | 2.51788 | 11235 ft | 343 kts | 205° |
| 2026-04-22 18:11 | 48.47653 | 2.50441 | 11433 ft | 353 kts | 190° |
| 2026-04-22 18:12 | 48.45220 | 2.50185 | 11647 ft | 360 kts | 170° |
| 2026-04-22 18:12 | 48.42806 | 2.51226 | 11887 ft | 366 kts | 153° |
| 2026-04-22 18:12 | 48.41247 | 2.52377 | 12066 ft | 372 kts | 149° |
| 2026-04-22 18:12 | 48.38183 | 2.54794 | 12616 ft | 380 kts | 149° |
| 2026-04-22 18:13 | 48.35824 | 2.56648 | 13004 ft | 386 kts | 150° |
| 2026-04-22 18:13 | 48.33431 | 2.58507 | 13169 ft | 387 kts | 150° |
| 2026-04-22 18:13 | 48.31034 | 2.60355 | 13182 ft | 388 kts | 150° |
| 2026-04-22 18:13 | 48.28630 | 2.62205 | 13203 ft | 389 kts | 151° |
| 2026-04-22 18:14 | 48.26247 | 2.64041 | 13512 ft | 392 kts | 150° |
| 2026-04-22 18:14 | 48.23818 | 2.65911 | 14053 ft | 393 kts | 150° |
| 2026-04-22 18:14 | 48.21376 | 2.67786 | 14468 ft | 397 kts | 150° |
| 2026-04-22 18:14 | 48.18902 | 2.69684 | 14826 ft | 402 kts | 151° |
| 2026-04-22 18:15 | 48.16389 | 2.71615 | 15077 ft | 410 kts | 151° |
| 2026-04-22 18:15 | 48.13837 | 2.73570 | 15488 ft | 413 kts | 152° |
| 2026-04-22 18:15 | 48.11266 | 2.75534 | 15863 ft | 418 kts | 152° |
| 2026-04-22 18:15 | 48.08656 | 2.77527 | 16187 ft | 423 kts | 152° |
| 2026-04-22 18:16 | 48.06017 | 2.79485 | 16621 ft | 426 kts | 154° |
| 2026-04-22 18:16 | 48.03337 | 2.81255 | 17057 ft | 428 kts | 156° |
| 2026-04-22 18:16 | 48.00567 | 2.82965 | 17399 ft | 433 kts | 158° |
| 2026-04-22 18:16 | 47.97763 | 2.84662 | 17778 ft | 437 kts | 158° |
| 2026-04-22 18:17 | 47.94929 | 2.86386 | 18026 ft | 444 kts | 158° |
| 2026-04-22 18:17 | 47.92057 | 2.88155 | 18360 ft | 448 kts | 158° |
| 2026-04-22 18:17 | 47.89172 | 2.89955 | 18710 ft | 451 kts | 158° |
| 2026-04-22 18:17 | 47.86270 | 2.91781 | 19060 ft | 454 kts | 158° |
| 2026-04-22 18:18 | 47.83356 | 2.93622 | 19400 ft | 456 kts | 158° |
| 2026-04-22 18:18 | 47.80426 | 2.95475 | 19762 ft | 459 kts | 157° |
| 2026-04-22 18:18 | 47.77479 | 2.97336 | 20144 ft | 461 kts | 157° |
| 2026-04-22 18:18 | 47.74552 | 2.99184 | 20413 ft | 466 kts | 158° |
| 2026-04-22 18:19 | 47.71554 | 3.01073 | 20726 ft | 470 kts | 158° |
| 2026-04-22 18:19 | 47.68538 | 3.02969 | 21088 ft | 472 kts | 158° |
| 2026-04-22 18:19 | 47.65506 | 3.04872 | 21443 ft | 475 kts | 158° |
| 2026-04-22 18:19 | 47.62454 | 3.06783 | 21804 ft | 477 kts | 158° |
| 2026-04-22 18:20 | 47.59387 | 3.08702 | 22165 ft | 480 kts | 158° |
| 2026-04-22 18:20 | 47.56297 | 3.10633 | 22515 ft | 483 kts | 158° |
| 2026-04-22 18:20 | 47.53193 | 3.12572 | 22901 ft | 485 kts | 158° |
| 2026-04-22 18:20 | 47.50118 | 3.14495 | 23276 ft | 488 kts | 158° |
| 2026-04-22 18:21 | 47.46985 | 3.16445 | 23624 ft | 490 kts | 158° |
| 2026-04-22 18:21 | 47.43827 | 3.18406 | 23943 ft | 493 kts | 158° |
| 2026-04-22 18:21 | 47.40657 | 3.20371 | 24259 ft | 495 kts | 158° |
| 2026-04-22 18:21 | 47.37476 | 3.22340 | 24594 ft | 497 kts | 159° |
| 2026-04-22 18:22 | 47.34282 | 3.24317 | 24924 ft | 499 kts | 159° |
| 2026-04-22 18:22 | 47.31077 | 3.26298 | 25308 ft | 499 kts | 159° |
| 2026-04-22 18:22 | 47.27907 | 3.28255 | 25652 ft | 501 kts | 159° |
| 2026-04-22 18:22 | 47.24687 | 3.30241 | 25963 ft | 504 kts | 159° |
| 2026-04-22 18:23 | 47.21441 | 3.32240 | 26224 ft | 508 kts | 159° |
| 2026-04-22 18:23 | 47.18167 | 3.34254 | 26486 ft | 512 kts | 159° |
| 2026-04-22 18:23 | 47.14877 | 3.36274 | 26823 ft | 513 kts | 159° |
| 2026-04-22 18:24 | 47.08270 | 3.40323 | 27522 ft | 516 kts | 159° |
| 2026-04-22 18:24 | 47.04948 | 3.42356 | 27856 ft | 518 kts | 160° |
| 2026-04-22 18:24 | 46.98267 | 3.46434 | 28472 ft | 522 kts | 160° |
| 2026-04-22 18:25 | 46.94952 | 3.48453 | 28753 ft | 524 kts | 160° |
| 2026-04-22 18:25 | 46.91579 | 3.50505 | 29022 ft | 526 kts | 160° |
| 2026-04-22 18:25 | 46.88200 | 3.52556 | 29405 ft | 526 kts | 160° |
| 2026-04-22 18:26 | 46.81421 | 3.56668 | 29897 ft | 530 kts | 160° |
| 2026-04-22 18:26 | 46.78094 | 3.59021 | 30231 ft | 532 kts | 151° |
| 2026-04-22 18:26 | 46.75035 | 3.62069 | 30497 ft | 534 kts | 141° |
| 2026-04-22 18:26 | 46.72372 | 3.65840 | 30696 ft | 536 kts | 130° |
| 2026-04-22 18:27 | 46.70223 | 3.70275 | 30918 ft | 536 kts | 118° |
| 2026-04-22 18:27 | 46.68700 | 3.75130 | 31137 ft | 534 kts | 106° |
| 2026-04-22 18:27 | 46.67650 | 3.80295 | 31397 ft | 532 kts | 102° |
| 2026-04-22 18:27 | 46.66739 | 3.85513 | 31655 ft | 532 kts | 101° |
| 2026-04-22 18:28 | 46.65878 | 3.90752 | 31920 ft | 532 kts | 100° |
| 2026-04-22 18:28 | 46.65031 | 3.95986 | 32175 ft | 532 kts | 100° |
| 2026-04-22 18:28 | 46.64169 | 4.01224 | 32421 ft | 532 kts | 100° |
| 2026-04-22 18:28 | 46.63295 | 4.06406 | 32658 ft | 533 kts | 100° |
| 2026-04-22 18:29 | 46.62386 | 4.11694 | 32806 ft | 535 kts | 101° |
| 2026-04-22 18:29 | 46.61473 | 4.16936 | 33056 ft | 535 kts | 101° |
| 2026-04-22 18:29 | 46.59636 | 4.27406 | 33133 ft | 540 kts | 101° |
| 2026-04-22 18:30 | 46.56831 | 4.43267 | 33134 ft | 540 kts | 101° |
| 2026-04-22 18:31 | 46.54947 | 4.53855 | 33125 ft | 541 kts | 101° |
| 2026-04-22 18:31 | 46.53055 | 4.64433 | 33128 ft | 542 kts | 101° |
| 2026-04-22 18:32 | 46.51163 | 4.74950 | 33128 ft | 542 kts | 101° |
| 2026-04-22 18:32 | 46.49248 | 4.85527 | 33137 ft | 542 kts | 101° |
| 2026-04-22 18:33 | 46.47324 | 4.96104 | 33116 ft | 543 kts | 101° |
| 2026-04-22 18:33 | 46.45385 | 5.06702 | 33110 ft | 543 kts | 101° |
| 2026-04-22 18:34 | 46.43457 | 5.17209 | 33116 ft | 543 kts | 101° |
| 2026-04-22 18:34 | 46.41501 | 5.27780 | 33112 ft | 543 kts | 101° |
| 2026-04-22 18:35 | 46.39534 | 5.38358 | 33115 ft | 544 kts | 101° |
| 2026-04-22 18:35 | 46.37563 | 5.48944 | 33122 ft | 544 kts | 101° |
| 2026-04-22 18:36 | 46.35592 | 5.59518 | 33124 ft | 544 kts | 101° |
| 2026-04-22 18:36 | 46.33620 | 5.70022 | 33146 ft | 545 kts | 101° |
| 2026-04-22 18:37 | 46.31623 | 5.80604 | 33152 ft | 545 kts | 101° |
| 2026-04-22 18:37 | 46.29615 | 5.91187 | 33155 ft | 546 kts | 101° |
| 2026-04-22 18:38 | 46.27606 | 6.01716 | 33186 ft | 546 kts | 101° |
| 2026-04-22 18:38 | 46.25522 | 6.12325 | 33152 ft | 549 kts | 105° |
| 2026-04-22 18:39 | 46.21414 | 6.27730 | 33155 ft | 551 kts | 108° |
| 2026-04-22 18:39 | 46.18605 | 6.37757 | 33138 ft | 551 kts | 108° |
| 2026-04-22 18:40 | 46.15718 | 6.48028 | 33143 ft | 552 kts | 108° |
| 2026-04-22 18:40 | 46.12853 | 6.58215 | 33136 ft | 552 kts | 108° |
| 2026-04-22 18:41 | 46.09964 | 6.68454 | 33127 ft | 551 kts | 108° |
| 2026-04-22 18:41 | 46.07072 | 6.78689 | 33142 ft | 553 kts | 109° |
| 2026-04-22 18:42 | 46.04161 | 6.88950 | 33129 ft | 553 kts | 108° |
| 2026-04-22 18:42 | 46.01233 | 6.99202 | 33136 ft | 554 kts | 109° |
| 2026-04-22 18:43 | 45.98318 | 7.09357 | 33133 ft | 553 kts | 109° |
| 2026-04-22 18:43 | 45.95730 | 7.19707 | 33134 ft | 545 kts | 97° |
| 2026-04-22 18:44 | 45.94262 | 7.30355 | 33151 ft | 544 kts | 95° |
| 2026-04-22 18:44 | 45.92807 | 7.41038 | 33120 ft | 549 kts | 102° |
| 2026-04-22 18:45 | 45.89570 | 7.50947 | 33188 ft | 558 kts | 121° |
| 2026-04-22 18:45 | 45.85117 | 7.60080 | 33188 ft | 559 kts | 124° |
| 2026-04-22 18:46 | 45.80458 | 7.69027 | 33188 ft | 559 kts | 125° |
| 2026-04-22 18:46 | 45.75811 | 7.77954 | 33185 ft | 559 kts | 125° |
| 2026-04-22 18:47 | 45.71191 | 7.86918 | 33222 ft | 560 kts | 124° |
| 2026-04-22 18:47 | 45.66614 | 7.95824 | 33192 ft | 560 kts | 124° |
| 2026-04-22 18:48 | 45.61987 | 8.04792 | 33189 ft | 561 kts | 124° |
| 2026-04-22 18:48 | 45.57347 | 8.13752 | 33189 ft | 561 kts | 125° |
| 2026-04-22 18:49 | 45.52699 | 8.22691 | 33188 ft | 561 kts | 125° |
| 2026-04-22 18:49 | 45.48115 | 8.31478 | 33181 ft | 562 kts | 125° |
| 2026-04-22 18:50 | 45.43441 | 8.40413 | 33183 ft | 562 kts | 125° |
| 2026-04-22 18:50 | 45.38762 | 8.49329 | 33164 ft | 562 kts | 125° |
| 2026-04-22 18:51 | 45.34077 | 8.58231 | 33164 ft | 562 kts | 125° |
| 2026-04-22 18:51 | 45.29406 | 8.67078 | 33168 ft | 564 kts | 126° |
| 2026-04-22 18:52 | 45.24693 | 8.75973 | 33165 ft | 564 kts | 126° |
| 2026-04-22 18:52 | 45.19976 | 8.84850 | 33159 ft | 563 kts | 126° |
| 2026-04-22 18:53 | 45.15260 | 8.93698 | 33157 ft | 563 kts | 126° |
| 2026-04-22 18:53 | 45.10524 | 9.02557 | 33161 ft | 564 kts | 126° |
| 2026-04-22 18:54 | 45.05811 | 9.11344 | 33165 ft | 564 kts | 126° |
| 2026-04-22 18:54 | 45.01058 | 9.20178 | 33135 ft | 564 kts | 126° |
| 2026-04-22 18:55 | 44.96298 | 9.29000 | 33181 ft | 565 kts | 126° |
| 2026-04-22 18:55 | 44.91526 | 9.37813 | 33164 ft | 566 kts | 126° |
| 2026-04-22 18:56 | 44.86749 | 9.46611 | 33150 ft | 565 kts | 126° |
| 2026-04-22 18:56 | 44.81995 | 9.55341 | 33166 ft | 565 kts | 127° |
| 2026-04-22 18:57 | 44.77196 | 9.64125 | 33134 ft | 566 kts | 127° |
| 2026-04-22 18:57 | 44.72396 | 9.72886 | 33152 ft | 565 kts | 127° |
| 2026-04-22 18:58 | 44.67594 | 9.81622 | 33161 ft | 565 kts | 127° |
| 2026-04-22 18:58 | 44.62813 | 9.90294 | 33178 ft | 565 kts | 127° |
| 2026-04-22 18:59 | 44.57989 | 9.99014 | 33189 ft | 566 kts | 127° |
| 2026-04-22 18:59 | 44.53155 | 10.07730 | 33179 ft | 566 kts | 127° |
| 2026-04-22 19:00 | 44.48318 | 10.16429 | 33203 ft | 566 kts | 127° |
| 2026-04-22 19:00 | 44.43411 | 10.25036 | 33212 ft | 567 kts | 129° |
| 2026-04-22 19:01 | 44.38441 | 10.33516 | 33198 ft | 567 kts | 129° |
| 2026-04-22 19:01 | 44.33433 | 10.42055 | 33203 ft | 568 kts | 129° |
| 2026-04-22 19:02 | 44.28435 | 10.50591 | 33199 ft | 567 kts | 129° |
| 2026-04-22 19:02 | 44.23438 | 10.59115 | 33213 ft | 568 kts | 129° |
| 2026-04-22 19:03 | 44.18468 | 10.67570 | 33188 ft | 568 kts | 129° |
| 2026-04-22 19:03 | 44.13457 | 10.76074 | 33189 ft | 569 kts | 129° |
| 2026-04-22 19:04 | 44.08432 | 10.84577 | 33182 ft | 569 kts | 129° |
| 2026-04-22 19:04 | 44.03404 | 10.93062 | 33178 ft | 569 kts | 129° |
| 2026-04-22 19:05 | 43.98367 | 11.01532 | 33165 ft | 569 kts | 130° |
| 2026-04-22 19:05 | 43.93357 | 11.09935 | 33161 ft | 569 kts | 130° |
| 2026-04-22 19:06 | 43.88306 | 11.18374 | 33159 ft | 569 kts | 130° |
| 2026-04-22 19:07 | 43.80716 | 11.31000 | 33194 ft | 568 kts | 130° |
| 2026-04-22 19:07 | 43.75655 | 11.39399 | 33171 ft | 569 kts | 130° |
| 2026-04-22 19:08 | 43.70582 | 11.47792 | 33173 ft | 569 kts | 130° |
| 2026-04-22 19:08 | 43.65533 | 11.56121 | 33172 ft | 569 kts | 130° |
| 2026-04-22 19:09 | 43.60446 | 11.64491 | 33177 ft | 569 kts | 131° |
| 2026-04-22 19:09 | 43.56213 | 11.71434 | 33182 ft | 569 kts | 131° |
| 2026-04-22 19:10 | 43.50242 | 11.81201 | 33179 ft | 570 kts | 131° |
| 2026-04-22 19:10 | 43.45156 | 11.89493 | 33178 ft | 570 kts | 131° |
| 2026-04-22 19:11 | 43.40032 | 11.97826 | 33178 ft | 571 kts | 131° |
| 2026-04-22 19:11 | 43.34902 | 12.06141 | 33183 ft | 570 kts | 131° |
| 2026-04-22 19:12 | 43.29763 | 12.14447 | 33174 ft | 571 kts | 131° |
| 2026-04-22 19:12 | 43.24611 | 12.22754 | 33163 ft | 571 kts | 131° |
| 2026-04-22 19:13 | 43.19490 | 12.30990 | 33159 ft | 571 kts | 131° |
| 2026-04-22 19:13 | 43.14334 | 12.39257 | 33147 ft | 570 kts | 132° |
| 2026-04-22 19:14 | 43.09177 | 12.47501 | 33159 ft | 571 kts | 132° |
| 2026-04-22 19:14 | 43.04004 | 12.55745 | 33157 ft | 572 kts | 132° |
| 2026-04-22 19:15 | 42.99692 | 12.62599 | 33157 ft | 572 kts | 132° |
| 2026-04-22 19:15 | 42.93663 | 12.72157 | 33159 ft | 572 kts | 132° |
| 2026-04-22 19:16 | 42.88469 | 12.80367 | 33171 ft | 571 kts | 132° |
| 2026-04-22 19:16 | 42.83267 | 12.88566 | 33151 ft | 572 kts | 133° |
| 2026-04-22 19:17 | 42.78050 | 12.96763 | 33168 ft | 572 kts | 132° |
| 2026-04-22 19:17 | 42.72825 | 13.04952 | 33151 ft | 573 kts | 132° |
| 2026-04-22 19:18 | 42.67639 | 13.13061 | 33173 ft | 572 kts | 132° |
| 2026-04-22 19:18 | 42.62415 | 13.21198 | 33171 ft | 571 kts | 133° |
| 2026-04-22 19:19 | 42.57193 | 13.29315 | 33169 ft | 571 kts | 133° |
| 2026-04-22 19:19 | 42.52001 | 13.37366 | 33176 ft | 571 kts | 133° |
| 2026-04-22 19:20 | 42.46768 | 13.45460 | 33169 ft | 571 kts | 133° |
| 2026-04-22 19:20 | 42.41531 | 13.53533 | 33172 ft | 571 kts | 133° |
| 2026-04-22 19:21 | 42.36287 | 13.61593 | 33173 ft | 570 kts | 133° |
| 2026-04-22 19:21 | 42.31045 | 13.69627 | 33176 ft | 570 kts | 133° |
| 2026-04-22 19:22 | 42.25831 | 13.77596 | 33167 ft | 570 kts | 133° |
| 2026-04-22 19:22 | 42.20575 | 13.85610 | 33177 ft | 570 kts | 133° |
| 2026-04-22 19:23 | 42.15303 | 13.93621 | 33156 ft | 572 kts | 133° |
| 2026-04-22 19:23 | 42.10033 | 14.01613 | 33167 ft | 570 kts | 133° |
| 2026-04-22 19:24 | 42.04798 | 14.09534 | 33159 ft | 570 kts | 133° |
| 2026-04-22 19:24 | 41.99530 | 14.17480 | 33170 ft | 570 kts | 133° |
| 2026-04-22 19:25 | 41.94248 | 14.25425 | 33155 ft | 571 kts | 134° |
| 2026-04-22 19:25 | 41.88937 | 14.33391 | 33151 ft | 573 kts | 134° |
| 2026-04-22 19:26 | 41.83622 | 14.41343 | 33143 ft | 573 kts | 134° |
| 2026-04-22 19:26 | 41.80996 | 14.45264 | 33144 ft | 573 kts | 134° |
| 2026-04-22 19:27 | 41.67918 | 14.64714 | 33138 ft | 573 kts | 134° |
| 2026-04-22 19:28 | 41.62622 | 14.72555 | 33140 ft | 571 kts | 133° |
| 2026-04-22 19:28 | 41.57305 | 14.80407 | 33139 ft | 569 kts | 133° |
| 2026-04-22 19:29 | 41.51985 | 14.88244 | 33136 ft | 569 kts | 133° |
| 2026-04-22 19:29 | 41.46664 | 14.96067 | 33142 ft | 571 kts | 134° |
| 2026-04-22 19:30 | 41.42211 | 15.02587 | 33135 ft | 573 kts | 134° |
| 2026-04-22 19:30 | 41.35980 | 15.11680 | 33126 ft | 570 kts | 133° |
| 2026-04-22 19:31 | 41.30643 | 15.19457 | 33123 ft | 569 kts | 133° |
| 2026-04-22 19:31 | 41.25303 | 15.27218 | 33115 ft | 569 kts | 133° |
| 2026-04-22 19:32 | 41.19949 | 15.34976 | 33122 ft | 571 kts | 134° |
| 2026-04-22 19:32 | 41.14610 | 15.42698 | 33091 ft | 571 kts | 134° |
| 2026-04-22 19:33 | 41.09258 | 15.50418 | 33138 ft | 566 kts | 134° |
| 2026-04-22 19:33 | 41.03937 | 15.58070 | 33139 ft | 564 kts | 134° |
| 2026-04-22 19:34 | 40.98609 | 15.65712 | 33121 ft | 565 kts | 135° |
| 2026-04-22 19:34 | 40.93307 | 15.73298 | 33122 ft | 565 kts | 135° |
| 2026-04-22 19:35 | 40.87966 | 15.80921 | 33123 ft | 565 kts | 135° |
| 2026-04-22 19:35 | 40.83499 | 15.87283 | 33126 ft | 563 kts | 135° |
| 2026-04-22 19:36 | 40.77314 | 15.96068 | 33118 ft | 562 kts | 135° |
| 2026-04-22 19:36 | 40.71994 | 16.03604 | 33114 ft | 561 kts | 135° |
| 2026-04-22 19:37 | 40.66705 | 16.11075 | 33107 ft | 561 kts | 135° |
| 2026-04-22 19:37 | 40.61375 | 16.18585 | 33096 ft | 561 kts | 136° |
| 2026-04-22 19:38 | 40.56053 | 16.26067 | 33091 ft | 559 kts | 136° |
| 2026-04-22 19:38 | 40.50732 | 16.33528 | 33084 ft | 559 kts | 136° |
| 2026-04-22 19:39 | 40.45411 | 16.40971 | 33076 ft | 559 kts | 136° |
| 2026-04-22 19:39 | 40.40118 | 16.48356 | 33077 ft | 559 kts | 136° |
| 2026-04-22 19:40 | 40.34787 | 16.55777 | 33054 ft | 558 kts | 136° |
| 2026-04-22 19:40 | 40.29473 | 16.63157 | 33076 ft | 555 kts | 136° |
| 2026-04-22 19:41 | 40.24167 | 16.70506 | 33090 ft | 555 kts | 136° |
| 2026-04-22 19:41 | 40.18884 | 16.77805 | 33078 ft | 556 kts | 136° |
| 2026-04-22 19:42 | 40.13557 | 16.85147 | 33081 ft | 557 kts | 136° |
| 2026-04-22 19:42 | 40.08224 | 16.92480 | 33068 ft | 556 kts | 136° |
| 2026-04-22 19:43 | 40.00253 | 17.03409 | 33080 ft | 553 kts | 136° |
| 2026-04-22 19:43 | 39.94985 | 17.10610 | 33080 ft | 552 kts | 137° |
| 2026-04-22 19:44 | 39.89681 | 17.17841 | 33083 ft | 552 kts | 137° |
| 2026-04-22 19:44 | 39.84372 | 17.25062 | 33081 ft | 552 kts | 137° |
| 2026-04-22 19:45 | 39.79067 | 17.32261 | 33078 ft | 550 kts | 137° |
| 2026-04-22 19:45 | 39.73818 | 17.39368 | 33074 ft | 548 kts | 137° |
| 2026-04-22 19:46 | 39.68528 | 17.46512 | 33073 ft | 549 kts | 137° |
| 2026-04-22 19:46 | 39.63224 | 17.53657 | 33070 ft | 550 kts | 137° |
| 2026-04-22 19:47 | 39.57917 | 17.60791 | 33067 ft | 550 kts | 137° |
| 2026-04-22 19:47 | 39.52606 | 17.67914 | 33068 ft | 548 kts | 137° |
| 2026-04-22 19:48 | 39.47355 | 17.74942 | 33063 ft | 546 kts | 137° |
| 2026-04-22 19:48 | 39.42069 | 17.81997 | 33061 ft | 546 kts | 137° |
| 2026-04-22 19:49 | 39.36781 | 17.89039 | 33051 ft | 546 kts | 137° |
| 2026-04-22 19:49 | 39.31486 | 17.96074 | 33069 ft | 546 kts | 137° |
| 2026-04-22 19:50 | 39.26224 | 18.03049 | 33045 ft | 546 kts | 137° |
| 2026-04-22 19:50 | 39.20922 | 18.10062 | 33049 ft | 546 kts | 137° |
| 2026-04-22 19:51 | 39.15615 | 18.17065 | 33057 ft | 546 kts | 137° |
| 2026-04-22 19:51 | 39.10307 | 18.24053 | 33037 ft | 546 kts | 137° |
| 2026-04-22 19:52 | 39.04994 | 18.31031 | 33034 ft | 546 kts | 137° |
| 2026-04-22 19:52 | 38.99712 | 18.37954 | 33019 ft | 546 kts | 137° |
| 2026-04-22 19:53 | 38.94407 | 18.44891 | 33042 ft | 543 kts | 137° |
| 2026-04-22 19:53 | 38.89099 | 18.51815 | 33040 ft | 544 kts | 138° |
| 2026-04-22 19:54 | 38.83786 | 18.58730 | 33032 ft | 544 kts | 138° |
| 2026-04-22 19:54 | 38.78504 | 18.65589 | 33032 ft | 544 kts | 138° |
| 2026-04-22 19:55 | 38.73180 | 18.72489 | 33027 ft | 544 kts | 138° |
| 2026-04-22 19:55 | 38.67858 | 18.79369 | 33030 ft | 543 kts | 138° |
| 2026-04-22 19:56 | 38.62529 | 18.86243 | 33018 ft | 544 kts | 138° |
| 2026-04-22 19:56 | 38.57229 | 18.93065 | 33018 ft | 544 kts | 138° |
| 2026-04-22 19:57 | 38.51891 | 18.99921 | 33018 ft | 544 kts | 138° |
| 2026-04-22 19:57 | 38.46583 | 19.06825 | 33018 ft | 545 kts | 137° |
| 2026-04-22 19:58 | 38.41320 | 19.13767 | 33012 ft | 544 kts | 137° |
| 2026-04-22 19:58 | 38.36061 | 19.20683 | 33010 ft | 543 kts | 137° |
| 2026-04-22 20:00 | 38.17623 | 19.44707 | 33005 ft | 543 kts | 137° |
| 2026-04-22 20:01 | 38.12334 | 19.51564 | 33005 ft | 543 kts | 137° |
| 2026-04-22 20:01 | 38.07081 | 19.58358 | 32996 ft | 543 kts | 137° |
| 2026-04-22 20:02 | 38.01791 | 19.65185 | 32996 ft | 542 kts | 137° |
| 2026-04-22 20:02 | 37.96498 | 19.72000 | 32991 ft | 542 kts | 137° |
| 2026-04-22 20:03 | 37.91201 | 19.78806 | 32991 ft | 542 kts | 137° |
| 2026-04-22 20:03 | 37.85900 | 19.85602 | 32986 ft | 542 kts | 138° |
| 2026-04-22 20:04 | 37.80642 | 19.92331 | 32993 ft | 540 kts | 138° |
| 2026-04-22 20:04 | 37.75354 | 19.99081 | 32990 ft | 540 kts | 138° |
| 2026-04-22 20:05 | 37.70065 | 20.05816 | 32988 ft | 540 kts | 138° |
| 2026-04-22 20:05 | 37.64775 | 20.12541 | 32983 ft | 540 kts | 138° |
| 2026-04-22 20:06 | 37.59511 | 20.19217 | 32984 ft | 540 kts | 138° |
| 2026-04-22 20:06 | 37.54215 | 20.25919 | 32976 ft | 538 kts | 138° |
| 2026-04-22 20:07 | 37.48940 | 20.32584 | 32977 ft | 537 kts | 138° |
| 2026-04-22 20:07 | 37.43665 | 20.39232 | 32974 ft | 536 kts | 138° |
| 2026-04-22 20:08 | 37.38389 | 20.45867 | 32974 ft | 536 kts | 138° |
| 2026-04-22 20:08 | 37.33143 | 20.52451 | 32971 ft | 537 kts | 138° |
| 2026-04-22 20:09 | 37.27851 | 20.59078 | 32949 ft | 537 kts | 138° |
| 2026-04-22 20:09 | 37.22589 | 20.65656 | 32971 ft | 531 kts | 138° |
| 2026-04-22 20:10 | 37.17358 | 20.72181 | 32965 ft | 530 kts | 138° |
| 2026-04-22 20:10 | 37.12127 | 20.78690 | 32967 ft | 530 kts | 138° |
| 2026-04-22 20:11 | 37.06923 | 20.85151 | 32969 ft | 531 kts | 138° |
| 2026-04-22 20:11 | 37.01679 | 20.91651 | 32966 ft | 531 kts | 138° |
| 2026-04-22 20:12 | 36.96437 | 20.98137 | 32964 ft | 528 kts | 138° |
| 2026-04-22 20:12 | 36.92109 | 21.03482 | 32966 ft | 524 kts | 138° |
| 2026-04-22 20:13 | 36.86076 | 21.10915 | 32966 ft | 524 kts | 138° |
| 2026-04-22 20:13 | 36.80883 | 21.17297 | 32964 ft | 525 kts | 138° |
| 2026-04-22 20:14 | 36.75675 | 21.23685 | 32963 ft | 525 kts | 138° |
| 2026-04-22 20:14 | 36.70460 | 21.30071 | 32957 ft | 525 kts | 138° |
| 2026-04-22 20:15 | 36.65288 | 21.36393 | 32959 ft | 523 kts | 138° |
| 2026-04-22 20:15 | 36.60106 | 21.42714 | 32958 ft | 521 kts | 138° |
| 2026-04-22 20:16 | 36.54922 | 21.49024 | 32956 ft | 521 kts | 138° |
| 2026-04-22 20:16 | 36.49738 | 21.55321 | 32955 ft | 521 kts | 138° |
| 2026-04-22 20:17 | 36.44548 | 21.61613 | 32955 ft | 521 kts | 139° |
| 2026-04-22 20:17 | 36.39393 | 21.67850 | 32955 ft | 521 kts | 139° |
| 2026-04-22 20:18 | 36.34197 | 21.74125 | 32951 ft | 521 kts | 139° |
| 2026-04-22 20:18 | 36.28998 | 21.80392 | 32955 ft | 521 kts | 139° |
| 2026-04-22 20:19 | 36.23796 | 21.86650 | 32954 ft | 522 kts | 139° |
| 2026-04-22 20:19 | 36.18584 | 21.92907 | 32955 ft | 522 kts | 139° |
| 2026-04-22 20:20 | 36.13405 | 21.99113 | 32953 ft | 522 kts | 139° |
| 2026-04-22 20:20 | 36.08189 | 22.05350 | 32950 ft | 521 kts | 139° |
| 2026-04-22 20:21 | 36.02987 | 22.11560 | 32952 ft | 519 kts | 139° |
| 2026-04-22 20:21 | 35.97787 | 22.17754 | 32955 ft | 520 kts | 139° |
| 2026-04-22 20:22 | 35.92607 | 22.23913 | 32953 ft | 521 kts | 139° |
| 2026-04-22 20:22 | 35.87389 | 22.30105 | 32952 ft | 521 kts | 139° |
| 2026-04-22 20:23 | 35.82170 | 22.36287 | 32955 ft | 521 kts | 139° |
| 2026-04-22 20:23 | 35.76945 | 22.42464 | 32962 ft | 520 kts | 139° |
| 2026-04-22 20:24 | 35.71727 | 22.48621 | 32962 ft | 520 kts | 139° |
| 2026-04-22 20:24 | 35.66538 | 22.54730 | 32952 ft | 520 kts | 139° |
| 2026-04-22 20:25 | 35.61307 | 22.60879 | 32954 ft | 520 kts | 139° |
| 2026-04-22 20:25 | 35.56074 | 22.67019 | 32963 ft | 520 kts | 139° |
| 2026-04-22 20:26 | 35.50838 | 22.73150 | 32968 ft | 520 kts | 139° |
| 2026-04-22 20:26 | 35.45633 | 22.79232 | 32958 ft | 521 kts | 139° |
| 2026-04-22 20:27 | 35.40379 | 22.85360 | 32964 ft | 521 kts | 139° |
| 2026-04-22 20:27 | 35.35128 | 22.91476 | 32966 ft | 521 kts | 139° |
| 2026-04-22 20:28 | 35.29868 | 22.97589 | 32961 ft | 521 kts | 139° |
| 2026-04-22 20:28 | 35.24645 | 23.03647 | 32968 ft | 521 kts | 139° |
| 2026-04-22 20:29 | 35.19382 | 23.09741 | 32969 ft | 521 kts | 139° |
| 2026-04-22 20:29 | 35.14097 | 23.15846 | 32968 ft | 526 kts | 139° |
| 2026-04-22 20:30 | 35.08771 | 23.21989 | 32973 ft | 527 kts | 139° |
| 2026-04-22 20:30 | 35.03477 | 23.28085 | 32974 ft | 527 kts | 139° |
| 2026-04-22 20:31 | 34.98145 | 23.34213 | 32977 ft | 527 kts | 139° |
| 2026-04-22 20:31 | 34.92810 | 23.40332 | 32976 ft | 527 kts | 139° |
| 2026-04-22 20:32 | 34.87474 | 23.46440 | 32964 ft | 526 kts | 139° |
| 2026-04-22 20:32 | 34.82100 | 23.52579 | 32972 ft | 532 kts | 139° |
| 2026-04-22 20:33 | 34.76736 | 23.58696 | 32987 ft | 532 kts | 139° |
| 2026-04-22 20:33 | 34.71331 | 23.64851 | 32989 ft | 532 kts | 139° |
| 2026-04-22 20:34 | 34.65922 | 23.70997 | 32991 ft | 532 kts | 139° |
| 2026-04-22 20:34 | 34.60512 | 23.77132 | 32977 ft | 532 kts | 139° |
| 2026-04-22 20:35 | 34.55139 | 23.83215 | 32986 ft | 533 kts | 140° |
| 2026-04-22 20:35 | 34.49685 | 23.89375 | 32987 ft | 537 kts | 140° |
| 2026-04-22 20:36 | 34.44216 | 23.95544 | 32987 ft | 537 kts | 140° |
| 2026-04-22 20:36 | 34.38745 | 24.01704 | 32988 ft | 537 kts | 140° |
| 2026-04-22 20:37 | 34.33304 | 24.07816 | 32997 ft | 537 kts | 140° |
| 2026-04-22 20:37 | 34.27830 | 24.13956 | 32990 ft | 536 kts | 140° |
| 2026-04-22 20:38 | 34.22347 | 24.20094 | 32988 ft | 539 kts | 140° |
| 2026-04-22 20:38 | 34.16827 | 24.26260 | 32991 ft | 541 kts | 140° |
| 2026-04-22 20:39 | 34.11303 | 24.32421 | 32993 ft | 541 kts | 140° |
| 2026-04-22 20:39 | 34.05816 | 24.38529 | 32993 ft | 540 kts | 140° |
| 2026-04-22 20:40 | 34.00290 | 24.44670 | 33163 ft | 539 kts | 140° |
| 2026-04-22 20:40 | 33.97536 | 24.47710 | 33543 ft | 536 kts | 141° |
| 2026-04-22 20:40 | 33.95705 | 24.49697 | 33761 ft | 535 kts | 141° |
| 2026-04-22 20:40 | 33.91985 | 24.53689 | 34075 ft | 535 kts | 142° |
| 2026-04-22 20:41 | 33.89202 | 24.56660 | 34301 ft | 535 kts | 142° |
| 2026-04-22 20:41 | 33.86418 | 24.59632 | 34555 ft | 534 kts | 142° |
| 2026-04-22 20:41 | 33.83681 | 24.62557 | 34786 ft | 533 kts | 142° |
| 2026-04-22 20:41 | 33.80914 | 24.65517 | 34970 ft | 534 kts | 142° |
| 2026-04-22 20:42 | 33.78129 | 24.68496 | 35001 ft | 538 kts | 142° |
| 2026-04-22 20:42 | 33.72528 | 24.74487 | 35001 ft | 539 kts | 142° |
| 2026-04-22 20:43 | 33.66928 | 24.80472 | 35000 ft | 539 kts | 142° |
| 2026-04-22 20:43 | 33.61369 | 24.86401 | 35001 ft | 538 kts | 142° |
| 2026-04-22 20:44 | 33.55775 | 24.92355 | 35002 ft | 537 kts | 142° |
| 2026-04-22 20:44 | 33.50184 | 24.98294 | 35002 ft | 537 kts | 142° |
| 2026-04-22 20:45 | 33.45532 | 25.03227 | 34998 ft | 537 kts | 142° |
| 2026-04-22 20:45 | 33.39035 | 25.10106 | 35005 ft | 536 kts | 142° |
| 2026-04-22 20:46 | 33.30652 | 25.18959 | 35007 ft | 536 kts | 142° |
| 2026-04-22 20:46 | 33.25999 | 25.23863 | 35007 ft | 536 kts | 142° |
| 2026-04-22 20:47 | 33.20404 | 25.29750 | 35008 ft | 536 kts | 142° |
| 2026-04-22 20:47 | 33.13899 | 25.36582 | 35008 ft | 536 kts | 142° |
| 2026-04-22 20:48 | 33.09212 | 25.41497 | 35006 ft | 535 kts | 142° |
| 2026-04-22 20:48 | 33.03653 | 25.47315 | 35006 ft | 535 kts | 142° |
| 2026-04-22 20:49 | 32.98056 | 25.53163 | 35010 ft | 534 kts | 142° |
| 2026-04-22 20:49 | 32.91573 | 25.59924 | 35012 ft | 533 kts | 142° |
| 2026-04-22 20:50 | 32.86902 | 25.64787 | 35006 ft | 532 kts | 143° |
| 2026-04-22 20:50 | 32.81367 | 25.70540 | 35006 ft | 532 kts | 143° |
| 2026-04-22 20:51 | 32.75796 | 25.76320 | 35021 ft | 531 kts | 143° |
| 2026-04-22 20:51 | 32.70226 | 25.82089 | 35000 ft | 531 kts | 143° |
| 2026-04-22 20:52 | 32.64664 | 25.87841 | 35016 ft | 529 kts | 143° |
| 2026-04-22 20:52 | 32.59152 | 25.93532 | 35018 ft | 529 kts | 143° |
| 2026-04-22 20:53 | 32.53603 | 25.99249 | 35019 ft | 528 kts | 143° |
| 2026-04-22 20:53 | 32.48052 | 26.04960 | 35019 ft | 528 kts | 143° |
| 2026-04-22 20:54 | 32.42501 | 26.10661 | 35020 ft | 528 kts | 143° |
| 2026-04-22 20:54 | 32.36947 | 26.16355 | 35007 ft | 528 kts | 143° |
| 2026-04-22 20:55 | 32.31432 | 26.22000 | 35017 ft | 528 kts | 143° |
| 2026-04-22 20:55 | 32.25883 | 26.27671 | 35016 ft | 528 kts | 143° |
| 2026-04-22 20:56 | 32.20322 | 26.33343 | 35017 ft | 529 kts | 143° |
| 2026-04-22 20:56 | 32.14752 | 26.39016 | 35017 ft | 529 kts | 143° |
| 2026-04-22 20:57 | 32.09221 | 26.44640 | 35018 ft | 529 kts | 143° |
| 2026-04-22 20:57 | 32.03652 | 26.50293 | 35016 ft | 527 kts | 143° |
| 2026-04-22 20:58 | 31.98101 | 26.55920 | 35016 ft | 526 kts | 143° |
| 2026-04-22 20:58 | 31.92550 | 26.61535 | 35020 ft | 525 kts | 143° |
| 2026-04-22 20:59 | 31.87042 | 26.67097 | 35017 ft | 525 kts | 143° |
| 2026-04-22 20:59 | 31.81496 | 26.72689 | 35015 ft | 525 kts | 143° |
| 2026-04-22 21:00 | 31.75944 | 26.78278 | 35022 ft | 525 kts | 143° |
| 2026-04-22 21:00 | 31.70400 | 26.83850 | 35020 ft | 524 kts | 143° |
| 2026-04-22 21:01 | 31.64902 | 26.89368 | 35014 ft | 524 kts | 143° |
| 2026-04-22 21:01 | 31.59355 | 26.94924 | 35015 ft | 524 kts | 143° |
| 2026-04-22 21:02 | 31.53807 | 27.00473 | 35015 ft | 524 kts | 143° |
| 2026-04-22 21:02 | 31.48255 | 27.06017 | 35016 ft | 524 kts | 143° |
| 2026-04-22 21:03 | 31.42738 | 27.11517 | 35001 ft | 524 kts | 143° |
| 2026-04-22 21:03 | 31.37187 | 27.17043 | 35013 ft | 523 kts | 144° |
| 2026-04-22 21:04 | 31.31456 | 27.22228 | 35021 ft | 517 kts | 154° |
| 2026-04-22 21:04 | 31.25101 | 27.26040 | 35020 ft | 513 kts | 160° |
| 2026-04-22 21:05 | 31.18634 | 27.29548 | 35019 ft | 512 kts | 160° |
| 2026-04-22 21:05 | 31.12199 | 27.32987 | 35004 ft | 512 kts | 160° |
| 2026-04-22 21:06 | 31.05738 | 27.36461 | 35017 ft | 511 kts | 160° |
| 2026-04-22 21:06 | 30.99294 | 27.39941 | 35015 ft | 511 kts | 160° |
| 2026-04-22 21:07 | 30.92962 | 27.43749 | 35018 ft | 517 kts | 150° |
| 2026-04-22 21:07 | 30.87215 | 27.48744 | 35013 ft | 520 kts | 146° |
| 2026-04-22 21:08 | 30.81553 | 27.54011 | 35012 ft | 521 kts | 145° |
| 2026-04-22 21:08 | 30.75915 | 27.59289 | 35009 ft | 520 kts | 146° |
| 2026-04-22 21:09 | 30.70264 | 27.64538 | 35010 ft | 520 kts | 146° |
| 2026-04-22 21:09 | 30.64636 | 27.69735 | 35007 ft | 520 kts | 146° |
| 2026-04-22 21:10 | 30.58972 | 27.74953 | 35007 ft | 520 kts | 146° |
| 2026-04-22 21:10 | 30.53303 | 27.80168 | 35006 ft | 520 kts | 146° |
| 2026-04-22 21:11 | 30.47632 | 27.85378 | 34998 ft | 520 kts | 146° |
| 2026-04-22 21:11 | 30.42007 | 27.90539 | 34999 ft | 519 kts | 146° |
| 2026-04-22 21:12 | 30.36337 | 27.95732 | 34999 ft | 520 kts | 146° |
| 2026-04-22 21:12 | 30.30667 | 28.00918 | 34998 ft | 519 kts | 146° |
| 2026-04-22 21:13 | 30.24996 | 28.06097 | 34994 ft | 519 kts | 146° |
| 2026-04-22 21:13 | 30.19364 | 28.11233 | 34994 ft | 519 kts | 146° |
| 2026-04-22 21:14 | 30.13694 | 28.16396 | 34992 ft | 519 kts | 146° |
| 2026-04-22 21:14 | 30.08019 | 28.21555 | 34995 ft | 519 kts | 146° |
| 2026-04-22 21:15 | 30.02340 | 28.26709 | 34995 ft | 519 kts | 146° |
| 2026-04-22 21:15 | 29.96702 | 28.31820 | 34995 ft | 519 kts | 146° |
| 2026-04-22 21:16 | 29.91019 | 28.36963 | 34982 ft | 519 kts | 146° |
| 2026-04-22 21:16 | 29.85638 | 28.42546 | 34994 ft | 526 kts | 134° |
| 2026-04-22 21:17 | 29.81026 | 28.49101 | 34993 ft | 528 kts | 131° |
| 2026-04-22 21:17 | 29.76588 | 28.55769 | 34996 ft | 528 kts | 131° |
| 2026-04-22 21:18 | 29.72128 | 28.62491 | 34996 ft | 528 kts | 131° |
| 2026-04-22 21:18 | 29.67651 | 28.69184 | 34999 ft | 528 kts | 131° |
| 2026-04-22 21:19 | 29.63157 | 28.75870 | 34999 ft | 528 kts | 131° |
| 2026-04-22 21:19 | 29.58693 | 28.82499 | 35004 ft | 528 kts | 131° |
| 2026-04-22 21:20 | 29.54194 | 28.89160 | 35004 ft | 528 kts | 131° |
| 2026-04-22 21:20 | 29.49690 | 28.95822 | 34979 ft | 528 kts | 131° |
| 2026-04-22 21:21 | 29.45189 | 29.02472 | 35009 ft | 527 kts | 131° |
| 2026-04-22 21:21 | 29.40296 | 29.08653 | 35013 ft | 519 kts | 145° |
| 2026-04-22 21:22 | 29.34712 | 29.13765 | 35011 ft | 517 kts | 147° |
| 2026-04-22 21:22 | 29.28971 | 29.18726 | 35000 ft | 517 kts | 148° |
| 2026-04-22 21:23 | 29.23221 | 29.23662 | 35012 ft | 517 kts | 148° |
| 2026-04-22 21:23 | 29.17478 | 29.28615 | 35003 ft | 517 kts | 148° |
| 2026-04-22 21:24 | 29.11774 | 29.33546 | 35008 ft | 517 kts | 148° |
| 2026-04-22 21:24 | 29.05987 | 29.38425 | 35010 ft | 516 kts | 149° |
| 2026-04-22 21:25 | 29.00167 | 29.43227 | 35016 ft | 516 kts | 149° |
| 2026-04-22 21:25 | 28.94346 | 29.48035 | 35019 ft | 516 kts | 149° |
| 2026-04-22 21:26 | 28.88571 | 29.52818 | 35020 ft | 516 kts | 149° |
| 2026-04-22 21:26 | 28.82755 | 29.57637 | 35011 ft | 517 kts | 149° |
| 2026-04-22 21:27 | 28.76928 | 29.62458 | 35021 ft | 518 kts | 149° |
| 2026-04-22 21:27 | 28.71092 | 29.67279 | 35021 ft | 518 kts | 149° |
| 2026-04-22 21:28 | 28.65294 | 29.72062 | 35020 ft | 518 kts | 149° |
| 2026-04-22 21:28 | 28.59456 | 29.76872 | 35020 ft | 518 kts | 149° |
| 2026-04-22 21:29 | 28.53617 | 29.81675 | 35020 ft | 518 kts | 149° |
| 2026-04-22 21:29 | 28.47764 | 29.86482 | 35020 ft | 520 kts | 150° |
| 2026-04-22 21:30 | 28.41891 | 29.91298 | 35020 ft | 521 kts | 150° |
| 2026-04-22 21:30 | 28.36056 | 29.96079 | 35019 ft | 521 kts | 150° |
| 2026-04-22 21:31 | 28.30180 | 30.00886 | 35019 ft | 521 kts | 150° |
| 2026-04-22 21:31 | 28.24303 | 30.05687 | 35019 ft | 521 kts | 150° |
| 2026-04-22 21:32 | 28.18420 | 30.10487 | 35021 ft | 522 kts | 150° |
| 2026-04-22 21:32 | 28.12562 | 30.15258 | 35025 ft | 523 kts | 151° |
| 2026-04-22 21:33 | 28.06652 | 30.20064 | 35021 ft | 523 kts | 151° |
| 2026-04-22 21:33 | 28.00739 | 30.24869 | 35019 ft | 523 kts | 151° |
| 2026-04-22 21:34 | 27.94823 | 30.29669 | 35021 ft | 523 kts | 151° |
| 2026-04-22 21:34 | 27.88947 | 30.34430 | 35000 ft | 523 kts | 151° |
| 2026-04-22 21:35 | 27.83019 | 30.39224 | 35023 ft | 525 kts | 152° |
| 2026-04-22 21:35 | 27.77061 | 30.44036 | 35024 ft | 528 kts | 152° |
| 2026-04-22 21:36 | 27.71082 | 30.48860 | 35024 ft | 528 kts | 152° |
| 2026-04-22 21:36 | 27.65142 | 30.53648 | 35021 ft | 528 kts | 152° |
| 2026-04-22 21:37 | 27.59160 | 30.58462 | 35025 ft | 528 kts | 152° |
| 2026-04-22 21:37 | 27.53163 | 30.63281 | 35026 ft | 532 kts | 153° |
| 2026-04-22 21:38 | 27.47119 | 30.68126 | 35026 ft | 534 kts | 153° |
| 2026-04-22 21:38 | 27.41064 | 30.72980 | 35026 ft | 534 kts | 153° |
| 2026-04-22 21:39 | 27.35044 | 30.77799 | 35029 ft | 534 kts | 153° |
| 2026-04-22 21:39 | 27.29011 | 30.82622 | 35029 ft | 534 kts | 153° |
| 2026-04-22 21:40 | 27.22925 | 30.87481 | 35010 ft | 535 kts | 154° |
| 2026-04-22 21:40 | 27.16821 | 30.92340 | 35029 ft | 539 kts | 154° |
| 2026-04-22 21:41 | 27.10737 | 30.97181 | 35041 ft | 540 kts | 155° |
| 2026-04-22 21:41 | 27.04639 | 31.02141 | 35044 ft | 548 kts | 149° |
| 2026-04-22 21:42 | 27.01859 | 31.05136 | 35050 ft | 560 kts | 140° |
| 2026-04-22 21:42 | 26.99282 | 31.08429 | 35049 ft | 563 kts | 138° |
| 2026-04-22 21:42 | 26.94302 | 31.15234 | 35041 ft | 566 kts | 136° |
| 2026-04-22 21:43 | 26.89413 | 31.22066 | 35029 ft | 566 kts | 136° |
| 2026-04-22 21:43 | 26.84467 | 31.28926 | 35022 ft | 566 kts | 137° |
| 2026-04-22 21:44 | 26.79486 | 31.35769 | 35005 ft | 567 kts | 137° |
| 2026-04-22 21:44 | 26.74496 | 31.42599 | 34996 ft | 567 kts | 137° |
| 2026-04-22 21:45 | 26.69539 | 31.49377 | 34994 ft | 567 kts | 137° |
| 2026-04-22 21:45 | 26.64550 | 31.56191 | 34980 ft | 567 kts | 137° |
| 2026-04-22 21:46 | 26.59548 | 31.63012 | 34979 ft | 567 kts | 137° |
| 2026-04-22 21:46 | 26.54548 | 31.69821 | 34971 ft | 567 kts | 137° |
| 2026-04-22 21:47 | 26.49581 | 31.76576 | 34965 ft | 566 kts | 137° |
| 2026-04-22 21:47 | 26.44601 | 31.83341 | 34963 ft | 562 kts | 137° |
| 2026-04-22 21:48 | 26.39639 | 31.90066 | 34955 ft | 560 kts | 138° |
| 2026-04-22 21:48 | 26.34681 | 31.96773 | 34948 ft | 560 kts | 138° |
| 2026-04-22 21:49 | 26.29757 | 32.03425 | 34944 ft | 560 kts | 138° |
| 2026-04-22 21:49 | 26.24794 | 32.10122 | 34937 ft | 560 kts | 137° |
| 2026-04-22 21:50 | 26.19833 | 32.16808 | 34934 ft | 560 kts | 137° |
| 2026-04-22 21:50 | 26.14872 | 32.23483 | 34921 ft | 559 kts | 138° |
| 2026-04-22 21:51 | 26.09911 | 32.30149 | 34908 ft | 558 kts | 137° |
| 2026-04-22 21:52 | 26.02541 | 32.40036 | 34913 ft | 555 kts | 137° |
| 2026-04-22 21:52 | 25.97605 | 32.46641 | 34901 ft | 555 kts | 137° |
| 2026-04-22 21:53 | 25.92670 | 32.53237 | 34887 ft | 555 kts | 137° |
| 2026-04-22 21:53 | 25.87764 | 32.59786 | 34886 ft | 555 kts | 137° |
| 2026-04-22 21:54 | 25.82829 | 32.66367 | 34880 ft | 554 kts | 137° |
| 2026-04-22 21:54 | 25.77894 | 32.72935 | 34882 ft | 554 kts | 137° |
| 2026-04-22 21:55 | 25.73217 | 32.79780 | 34884 ft | 560 kts | 131° |
| 2026-04-22 21:55 | 25.68907 | 32.86903 | 34866 ft | 559 kts | 130° |
| 2026-04-22 21:56 | 25.64642 | 32.94088 | 34864 ft | 557 kts | 130° |
| 2026-04-22 21:56 | 25.60384 | 33.01243 | 34863 ft | 556 kts | 130° |
| 2026-04-22 21:57 | 25.56116 | 33.08378 | 34868 ft | 556 kts | 130° |
| 2026-04-22 21:57 | 25.51840 | 33.15506 | 34866 ft | 556 kts | 130° |
| 2026-04-22 21:58 | 25.47593 | 33.22576 | 34867 ft | 555 kts | 130° |
| 2026-04-22 21:58 | 25.43316 | 33.29683 | 34868 ft | 555 kts | 130° |
| 2026-04-22 21:59 | 25.39036 | 33.36787 | 34866 ft | 555 kts | 130° |
| 2026-04-22 21:59 | 25.34754 | 33.43883 | 34871 ft | 555 kts | 130° |
| 2026-04-22 22:00 | 25.30498 | 33.50928 | 34874 ft | 555 kts | 130° |
| 2026-04-22 22:00 | 25.26211 | 33.58016 | 34869 ft | 555 kts | 130° |
| 2026-04-22 22:01 | 25.21927 | 33.65088 | 34874 ft | 553 kts | 130° |
| 2026-04-22 22:01 | 25.17674 | 33.72095 | 34872 ft | 554 kts | 130° |
| 2026-04-22 22:02 | 25.13377 | 33.79163 | 34872 ft | 555 kts | 130° |
| 2026-04-22 22:02 | 25.09074 | 33.86237 | 34875 ft | 555 kts | 130° |
| 2026-04-22 22:03 | 25.04770 | 33.93301 | 34878 ft | 555 kts | 130° |
| 2026-04-22 22:03 | 25.00487 | 34.00318 | 34875 ft | 556 kts | 130° |
| 2026-04-22 22:04 | 24.96163 | 34.07391 | 34876 ft | 556 kts | 130° |
| 2026-04-22 22:04 | 24.91837 | 34.14456 | 34876 ft | 556 kts | 130° |
| 2026-04-22 22:05 | 24.87511 | 34.21516 | 34877 ft | 556 kts | 130° |
| 2026-04-22 22:05 | 24.83178 | 34.28576 | 34879 ft | 557 kts | 131° |
| 2026-04-22 22:06 | 24.78860 | 34.35597 | 34872 ft | 559 kts | 131° |
| 2026-04-22 22:06 | 24.74496 | 34.42684 | 34878 ft | 559 kts | 131° |
| 2026-04-22 22:07 | 24.70130 | 34.49763 | 34871 ft | 560 kts | 131° |
| 2026-04-22 22:07 | 24.65778 | 34.56812 | 34874 ft | 561 kts | 131° |
| 2026-04-22 22:08 | 24.61393 | 34.63905 | 34876 ft | 561 kts | 131° |
| 2026-04-22 22:08 | 24.57000 | 34.71000 | 34873 ft | 561 kts | 131° |
| 2026-04-22 22:09 | 24.52607 | 34.78084 | 34884 ft | 561 kts | 131° |
| 2026-04-22 22:09 | 24.48211 | 34.85163 | 34875 ft | 561 kts | 131° |
| 2026-04-22 22:10 | 24.43846 | 34.92191 | 34854 ft | 560 kts | 130° |
| 2026-04-22 22:10 | 24.39462 | 34.99266 | 34857 ft | 560 kts | 131° |
| 2026-04-22 22:11 | 24.35053 | 35.06308 | 34861 ft | 559 kts | 131° |
| 2026-04-22 22:11 | 24.30656 | 35.13326 | 34868 ft | 558 kts | 131° |
| 2026-04-22 22:12 | 24.26293 | 35.20293 | 34867 ft | 558 kts | 131° |
| 2026-04-22 22:12 | 24.21902 | 35.27301 | 34859 ft | 558 kts | 131° |
| 2026-04-22 22:13 | 24.17510 | 35.34304 | 34864 ft | 557 kts | 131° |
| 2026-04-22 22:13 | 24.13117 | 35.41299 | 34853 ft | 557 kts | 131° |
| 2026-04-22 22:14 | 24.08749 | 35.48240 | 34852 ft | 558 kts | 131° |
| 2026-04-22 22:14 | 24.04351 | 35.55221 | 34848 ft | 556 kts | 130° |
| 2026-04-22 22:15 | 23.99966 | 35.62174 | 34845 ft | 555 kts | 130° |
| 2026-04-22 22:15 | 23.95579 | 35.69121 | 34848 ft | 555 kts | 130° |
| 2026-04-22 22:16 | 23.91216 | 35.76015 | 34831 ft | 554 kts | 131° |
| 2026-04-22 22:16 | 23.86843 | 35.82907 | 34851 ft | 550 kts | 131° |
| 2026-04-22 22:17 | 23.82483 | 35.89769 | 34826 ft | 549 kts | 131° |
| 2026-04-22 22:17 | 23.78123 | 35.96619 | 34844 ft | 549 kts | 131° |
| 2026-04-22 22:18 | 23.73792 | 36.03419 | 34843 ft | 549 kts | 131° |
| 2026-04-22 22:18 | 23.69430 | 36.10260 | 34843 ft | 549 kts | 131° |
| 2026-04-22 22:19 | 23.65063 | 36.17098 | 34844 ft | 549 kts | 131° |
| 2026-04-22 22:19 | 23.60694 | 36.23931 | 34826 ft | 549 kts | 131° |
| 2026-04-22 22:20 | 23.56353 | 36.30712 | 34840 ft | 549 kts | 132° |
| 2026-04-22 22:20 | 23.51975 | 36.37540 | 34840 ft | 549 kts | 132° |
| 2026-04-22 22:21 | 23.47597 | 36.44360 | 34817 ft | 549 kts | 131° |
| 2026-04-22 22:21 | 23.43211 | 36.51180 | 34829 ft | 550 kts | 131° |
| 2026-04-22 22:22 | 23.38852 | 36.57952 | 34835 ft | 550 kts | 131° |
| 2026-04-22 22:22 | 23.34453 | 36.64777 | 34834 ft | 551 kts | 131° |
| 2026-04-22 22:23 | 23.30052 | 36.71597 | 34834 ft | 551 kts | 131° |
| 2026-04-22 22:23 | 23.25650 | 36.78408 | 34827 ft | 551 kts | 131° |
| 2026-04-22 22:24 | 23.21269 | 36.85176 | 34836 ft | 551 kts | 131° |
| 2026-04-22 22:24 | 23.16855 | 36.91988 | 34835 ft | 551 kts | 131° |
| 2026-04-22 22:25 | 23.12435 | 36.98800 | 34832 ft | 551 kts | 131° |
| 2026-04-22 22:25 | 23.08023 | 37.05592 | 34829 ft | 549 kts | 131° |
| 2026-04-22 22:26 | 23.03647 | 37.12318 | 34831 ft | 549 kts | 131° |
| 2026-04-22 22:26 | 22.99246 | 37.19070 | 34828 ft | 547 kts | 131° |
| 2026-04-22 22:27 | 22.94842 | 37.25788 | 34826 ft | 545 kts | 131° |
| 2026-04-22 22:27 | 22.90446 | 37.32482 | 34829 ft | 544 kts | 131° |
| 2026-04-22 22:28 | 22.86085 | 37.39118 | 34822 ft | 544 kts | 131° |
| 2026-04-22 22:28 | 22.81691 | 37.45797 | 34823 ft | 544 kts | 131° |
| 2026-04-22 22:29 | 22.77294 | 37.52475 | 34825 ft | 545 kts | 132° |
| 2026-04-22 22:29 | 22.72884 | 37.59169 | 34823 ft | 546 kts | 132° |
| 2026-04-22 22:30 | 22.68479 | 37.65859 | 34820 ft | 546 kts | 131° |
| 2026-04-22 22:30 | 22.64112 | 37.72522 | 34820 ft | 546 kts | 131° |
| 2026-04-22 22:31 | 22.59709 | 37.79236 | 34821 ft | 547 kts | 131° |
| 2026-04-22 22:31 | 22.55301 | 37.85949 | 34821 ft | 547 kts | 131° |
| 2026-04-22 22:32 | 22.50886 | 37.92661 | 34819 ft | 547 kts | 131° |
| 2026-04-22 22:32 | 22.46496 | 37.99325 | 34818 ft | 549 kts | 131° |
| 2026-04-22 22:33 | 22.42052 | 38.06060 | 34817 ft | 551 kts | 131° |
| 2026-04-22 22:33 | 22.37597 | 38.12808 | 34815 ft | 551 kts | 131° |
| 2026-04-22 22:34 | 22.33144 | 38.19544 | 34813 ft | 551 kts | 131° |
| 2026-04-22 22:34 | 22.28704 | 38.26251 | 34815 ft | 554 kts | 131° |
| 2026-04-22 22:35 | 22.24218 | 38.33023 | 34813 ft | 554 kts | 131° |
| 2026-04-22 22:35 | 22.19726 | 38.39787 | 34813 ft | 554 kts | 131° |
| 2026-04-22 22:36 | 22.15231 | 38.46548 | 34801 ft | 554 kts | 131° |
| 2026-04-22 22:36 | 22.10762 | 38.53260 | 34806 ft | 555 kts | 131° |
| 2026-04-22 22:37 | 22.06261 | 38.60016 | 34807 ft | 555 kts | 131° |
| 2026-04-22 22:37 | 22.01754 | 38.66772 | 34811 ft | 555 kts | 131° |
| 2026-04-22 22:38 | 21.97254 | 38.73508 | 34808 ft | 553 kts | 131° |
| 2026-04-22 22:38 | 21.92755 | 38.80236 | 34806 ft | 553 kts | 131° |
| 2026-04-22 22:39 | 21.88285 | 38.86910 | 34800 ft | 553 kts | 131° |
| 2026-04-22 22:39 | 21.83778 | 38.93629 | 34801 ft | 553 kts | 131° |
| 2026-04-22 22:40 | 21.79276 | 39.00337 | 34802 ft | 553 kts | 131° |
| 2026-04-22 22:40 | 21.74334 | 39.06563 | 34799 ft | 540 kts | 146° |
| 2026-04-22 22:40 | 21.71388 | 39.08898 | 34785 ft | 528 kts | 156° |
| 2026-04-22 22:41 | 21.68137 | 39.10628 | 34796 ft | 516 kts | 167° |
| 2026-04-22 22:41 | 21.64732 | 39.11685 | 34802 ft | 504 kts | 178° |
| 2026-04-22 22:41 | 21.61290 | 39.12078 | 34805 ft | 493 kts | 187° |
| 2026-04-22 22:42 | 21.54463 | 39.12024 | 34801 ft | 490 kts | 189° |
| 2026-04-22 22:42 | 21.47653 | 39.11772 | 34797 ft | 490 kts | 190° |
| 2026-04-22 22:43 | 21.40883 | 39.11543 | 34798 ft | 490 kts | 189° |
| 2026-04-22 22:43 | 21.34069 | 39.11355 | 34787 ft | 490 kts | 189° |
| 2026-04-22 22:44 | 21.27251 | 39.11183 | 34786 ft | 490 kts | 189° |
| 2026-04-22 22:44 | 21.20436 | 39.11013 | 34781 ft | 490 kts | 189° |
| 2026-04-22 22:45 | 21.13672 | 39.10842 | 34801 ft | 489 kts | 188° |
| 2026-04-22 22:45 | 21.06868 | 39.10669 | 34801 ft | 489 kts | 188° |
| 2026-04-22 22:46 | 21.00068 | 39.10497 | 34800 ft | 489 kts | 188° |
| 2026-04-22 22:46 | 20.93271 | 39.10324 | 34783 ft | 489 kts | 188° |
| 2026-04-22 22:47 | 20.86473 | 39.10152 | 34796 ft | 488 kts | 188° |
| 2026-04-22 22:47 | 20.79727 | 39.09982 | 34794 ft | 488 kts | 188° |
| 2026-04-22 22:48 | 20.72936 | 39.09810 | 34797 ft | 488 kts | 188° |
| 2026-04-22 22:48 | 20.66142 | 39.09639 | 34788 ft | 488 kts | 188° |
| 2026-04-22 22:49 | 20.59363 | 39.09469 | 34796 ft | 487 kts | 188° |
| 2026-04-22 22:49 | 20.52629 | 39.09298 | 34796 ft | 487 kts | 188° |
| 2026-04-22 22:50 | 20.45849 | 39.09127 | 34799 ft | 487 kts | 188° |
| 2026-04-22 22:50 | 20.39072 | 39.08956 | 34790 ft | 487 kts | 187° |
| 2026-04-22 22:51 | 20.32305 | 39.08787 | 34798 ft | 486 kts | 187° |
| 2026-04-22 22:51 | 20.25587 | 39.08618 | 34796 ft | 486 kts | 187° |
| 2026-04-22 22:52 | 20.18818 | 39.08448 | 34795 ft | 486 kts | 187° |
| 2026-04-22 22:52 | 20.12059 | 39.08279 | 34797 ft | 486 kts | 187° |
| 2026-04-22 22:53 | 20.05301 | 39.08111 | 34791 ft | 485 kts | 187° |
| 2026-04-22 22:53 | 19.98549 | 39.07942 | 34788 ft | 485 kts | 187° |
| 2026-04-22 22:54 | 19.91845 | 39.07774 | 34785 ft | 485 kts | 187° |
| 2026-04-22 22:54 | 19.85086 | 39.07605 | 34796 ft | 486 kts | 187° |
| 2026-04-22 22:55 | 19.78322 | 39.07436 | 34794 ft | 486 kts | 187° |
| 2026-04-22 22:55 | 19.68218 | 39.07185 | 34793 ft | 486 kts | 187° |
| 2026-04-22 22:56 | 19.61448 | 39.07017 | 34794 ft | 486 kts | 187° |
| 2026-04-22 22:56 | 19.54687 | 39.06849 | 34793 ft | 486 kts | 187° |
| 2026-04-22 22:57 | 19.47917 | 39.06680 | 34799 ft | 486 kts | 187° |
| 2026-04-22 22:57 | 19.41195 | 39.06513 | 34799 ft | 486 kts | 187° |
| 2026-04-22 22:58 | 19.34427 | 39.06345 | 34793 ft | 487 kts | 187° |
| 2026-04-22 22:58 | 19.27650 | 39.06177 | 34797 ft | 487 kts | 187° |
| 2026-04-22 22:59 | 19.20871 | 39.06009 | 34797 ft | 487 kts | 187° |
| 2026-04-22 22:59 | 19.14138 | 39.05843 | 34878 ft | 486 kts | 187° |
| 2026-04-22 23:00 | 19.10763 | 39.05757 | 35174 ft | 484 kts | 188° |
| 2026-04-22 23:00 | 19.07412 | 39.05612 | 35450 ft | 481 kts | 189° |
| 2026-04-22 23:00 | 19.04075 | 39.05419 | 35694 ft | 480 kts | 190° |
| 2026-04-22 23:00 | 19.00732 | 39.05206 | 35794 ft | 483 kts | 190° |
| 2026-04-22 23:01 | 18.93993 | 39.04782 | 35799 ft | 486 kts | 190° |
| 2026-04-22 23:01 | 18.87239 | 39.04391 | 35798 ft | 486 kts | 189° |
| 2026-04-22 23:02 | 18.80518 | 39.04017 | 35798 ft | 487 kts | 189° |
| 2026-04-22 23:02 | 18.73741 | 39.03644 | 35798 ft | 488 kts | 189° |
| 2026-04-22 23:03 | 18.66964 | 39.03270 | 35800 ft | 488 kts | 189° |
| 2026-04-22 23:03 | 18.60187 | 39.02895 | 35787 ft | 488 kts | 189° |
| 2026-04-22 23:04 | 18.53447 | 39.02521 | 35801 ft | 488 kts | 189° |
| 2026-04-22 23:04 | 18.46659 | 39.02146 | 35801 ft | 489 kts | 189° |
| 2026-04-22 23:05 | 18.39867 | 39.01770 | 35801 ft | 489 kts | 189° |
| 2026-04-22 23:05 | 18.33070 | 39.01395 | 35789 ft | 489 kts | 189° |
| 2026-04-22 23:06 | 18.26314 | 39.01022 | 35799 ft | 490 kts | 189° |
| 2026-04-22 23:06 | 18.19505 | 39.00647 | 35798 ft | 490 kts | 189° |
| 2026-04-22 23:07 | 18.12690 | 39.00303 | 35802 ft | 491 kts | 188° |
| 2026-04-22 23:07 | 18.05860 | 39.00068 | 35796 ft | 491 kts | 188° |
| 2026-04-22 23:08 | 17.99057 | 38.99848 | 35802 ft | 492 kts | 188° |
| 2026-04-22 23:08 | 17.92207 | 38.99612 | 35801 ft | 493 kts | 188° |
| 2026-04-22 23:09 | 17.85358 | 38.99367 | 35799 ft | 493 kts | 188° |
| 2026-04-22 23:09 | 17.78506 | 38.99120 | 35795 ft | 493 kts | 188° |
| 2026-04-22 23:10 | 17.71689 | 38.98874 | 35801 ft | 494 kts | 188° |
| 2026-04-22 23:10 | 17.64822 | 38.98627 | 35804 ft | 494 kts | 188° |
| 2026-04-22 23:11 | 17.57953 | 38.98381 | 35807 ft | 494 kts | 188° |
| 2026-04-22 23:11 | 17.51082 | 38.98140 | 35804 ft | 495 kts | 187° |
| 2026-04-22 23:12 | 17.44213 | 38.98954 | 35807 ft | 509 kts | 170° |
| 2026-04-22 23:12 | 17.37719 | 39.02141 | 35807 ft | 526 kts | 149° |
| 2026-04-22 23:13 | 17.31928 | 39.06888 | 35802 ft | 531 kts | 145° |
| 2026-04-22 23:13 | 17.26270 | 39.11873 | 35802 ft | 532 kts | 144° |
| 2026-04-22 23:14 | 17.20608 | 39.16841 | 35792 ft | 531 kts | 145° |
| 2026-04-22 23:14 | 17.14952 | 39.21737 | 35796 ft | 531 kts | 145° |
| 2026-04-22 23:15 | 17.09247 | 39.26645 | 35799 ft | 531 kts | 145° |
| 2026-04-22 23:15 | 17.03535 | 39.31552 | 35796 ft | 531 kts | 145° |
| 2026-04-22 23:16 | 16.97827 | 39.36453 | 35792 ft | 531 kts | 145° |
| 2026-04-22 23:16 | 16.92154 | 39.41322 | 35793 ft | 531 kts | 145° |
| 2026-04-22 23:17 | 16.86443 | 39.46220 | 35793 ft | 531 kts | 145° |
| 2026-04-22 23:17 | 16.80733 | 39.51114 | 35793 ft | 531 kts | 145° |
| 2026-04-22 23:18 | 16.75018 | 39.56007 | 35791 ft | 531 kts | 145° |
| 2026-04-22 23:18 | 16.69341 | 39.60865 | 35790 ft | 531 kts | 145° |
| 2026-04-22 23:19 | 16.63640 | 39.65739 | 35790 ft | 531 kts | 145° |
| 2026-04-22 23:19 | 16.57924 | 39.70622 | 35790 ft | 531 kts | 145° |
| 2026-04-22 23:20 | 16.52215 | 39.75494 | 35793 ft | 530 kts | 146° |
| 2026-04-22 23:20 | 16.46546 | 39.80329 | 35791 ft | 530 kts | 146° |
| 2026-04-22 23:21 | 16.40838 | 39.85194 | 35787 ft | 530 kts | 146° |
| 2026-04-22 23:21 | 16.35135 | 39.90050 | 35788 ft | 530 kts | 146° |
| 2026-04-22 23:22 | 16.29432 | 39.94902 | 35784 ft | 530 kts | 146° |
| 2026-04-22 23:22 | 16.23759 | 39.99726 | 35785 ft | 530 kts | 146° |
| 2026-04-22 23:23 | 16.18056 | 40.04572 | 35788 ft | 530 kts | 146° |
| 2026-04-22 23:23 | 16.12349 | 40.09417 | 35788 ft | 529 kts | 146° |
| 2026-04-22 23:24 | 16.06682 | 40.14224 | 35788 ft | 529 kts | 146° |
| 2026-04-22 23:24 | 16.00979 | 40.19057 | 35786 ft | 529 kts | 146° |
| 2026-04-22 23:25 | 15.95273 | 40.23890 | 35788 ft | 529 kts | 146° |
| 2026-04-22 23:25 | 15.89567 | 40.28719 | 35777 ft | 529 kts | 146° |
| 2026-04-22 23:26 | 15.83868 | 40.33540 | 35795 ft | 528 kts | 146° |
| 2026-04-22 23:26 | 15.78207 | 40.38322 | 35783 ft | 528 kts | 146° |
| 2026-04-22 23:27 | 15.72512 | 40.43132 | 35780 ft | 528 kts | 146° |
| 2026-04-22 23:27 | 15.66814 | 40.47939 | 35795 ft | 528 kts | 146° |
| 2026-04-22 23:28 | 15.61112 | 40.52747 | 35789 ft | 528 kts | 146° |
| 2026-04-22 23:28 | 15.55453 | 40.57515 | 35788 ft | 528 kts | 146° |
| 2026-04-22 23:29 | 15.49750 | 40.62316 | 35781 ft | 528 kts | 146° |
| 2026-04-22 23:29 | 15.44049 | 40.67113 | 35779 ft | 528 kts | 146° |
| 2026-04-22 23:30 | 15.38350 | 40.71904 | 35791 ft | 528 kts | 146° |
| 2026-04-22 23:30 | 15.32682 | 40.76666 | 35773 ft | 528 kts | 146° |
| 2026-04-22 23:31 | 15.26975 | 40.81457 | 35788 ft | 528 kts | 146° |
| 2026-04-22 23:31 | 15.21269 | 40.86243 | 35777 ft | 528 kts | 146° |
| 2026-04-22 23:32 | 15.15549 | 40.91038 | 35780 ft | 530 kts | 146° |
| 2026-04-22 23:32 | 15.09854 | 40.95808 | 35782 ft | 530 kts | 146° |
| 2026-04-22 23:33 | 15.04120 | 41.00609 | 35780 ft | 530 kts | 146° |
| 2026-04-22 23:33 | 14.98380 | 41.05411 | 35780 ft | 530 kts | 146° |
| 2026-04-22 23:34 | 14.92641 | 41.10200 | 35775 ft | 530 kts | 146° |
| 2026-04-22 23:34 | 14.86934 | 41.14958 | 35779 ft | 530 kts | 145° |
| 2026-04-22 23:35 | 14.81209 | 41.19730 | 35780 ft | 529 kts | 145° |
| 2026-04-22 23:35 | 14.75477 | 41.24506 | 35782 ft | 529 kts | 145° |
| 2026-04-22 23:36 | 14.69752 | 41.29271 | 35783 ft | 529 kts | 145° |
| 2026-04-22 23:36 | 14.64023 | 41.34037 | 35784 ft | 529 kts | 145° |
| 2026-04-22 23:37 | 14.58330 | 41.38769 | 35778 ft | 529 kts | 145° |
| 2026-04-22 23:37 | 14.52598 | 41.43529 | 35776 ft | 529 kts | 145° |
| 2026-04-22 23:38 | 14.46861 | 41.48292 | 35782 ft | 529 kts | 145° |
| 2026-04-22 23:38 | 14.41163 | 41.53020 | 35781 ft | 529 kts | 145° |
| 2026-04-22 23:39 | 14.35421 | 41.57780 | 35780 ft | 530 kts | 145° |
| 2026-04-22 23:39 | 14.29674 | 41.62541 | 35776 ft | 530 kts | 145° |
| 2026-04-22 23:40 | 14.23923 | 41.67302 | 35777 ft | 530 kts | 145° |
| 2026-04-22 23:40 | 14.18211 | 41.72028 | 35780 ft | 530 kts | 145° |
| 2026-04-22 23:41 | 14.12454 | 41.76788 | 35783 ft | 530 kts | 145° |
| 2026-04-22 23:41 | 14.06698 | 41.81544 | 35774 ft | 531 kts | 145° |
| 2026-04-22 23:42 | 14.00937 | 41.86301 | 35779 ft | 531 kts | 145° |
| 2026-04-22 23:42 | 13.95178 | 41.91053 | 35780 ft | 531 kts | 145° |
| 2026-04-22 23:43 | 13.89458 | 41.95770 | 35789 ft | 530 kts | 145° |
| 2026-04-22 23:43 | 13.83704 | 42.00511 | 35790 ft | 530 kts | 144° |
| 2026-04-22 23:44 | 13.77953 | 42.05248 | 35786 ft | 529 kts | 145° |
| 2026-04-22 23:44 | 13.72201 | 42.09982 | 35785 ft | 529 kts | 145° |
| 2026-04-22 23:45 | 13.66489 | 42.14680 | 35883 ft | 529 kts | 145° |
| 2026-04-22 23:45 | 13.63624 | 42.17034 | 36183 ft | 526 kts | 145° |
| 2026-04-22 23:45 | 13.60763 | 42.19373 | 36432 ft | 525 kts | 145° |
| 2026-04-22 23:46 | 13.57895 | 42.21709 | 36619 ft | 526 kts | 145° |
| 2026-04-22 23:46 | 13.55024 | 42.24042 | 36778 ft | 527 kts | 145° |
| 2026-04-22 23:46 | 13.49231 | 42.28749 | 36777 ft | 532 kts | 145° |
| 2026-04-22 23:47 | 13.43470 | 42.33437 | 36774 ft | 532 kts | 145° |
| 2026-04-22 23:47 | 13.37678 | 42.38150 | 36785 ft | 531 kts | 145° |
| 2026-04-22 23:48 | 13.31882 | 42.42862 | 36781 ft | 531 kts | 145° |
| 2026-04-22 23:48 | 13.26081 | 42.47575 | 36779 ft | 531 kts | 145° |
| 2026-04-22 23:49 | 13.20328 | 42.52246 | 36782 ft | 531 kts | 145° |
| 2026-04-22 23:49 | 13.14534 | 42.56947 | 36790 ft | 531 kts | 145° |
| 2026-04-22 23:50 | 13.08692 | 42.61571 | 36777 ft | 528 kts | 150° |
| 2026-04-22 23:50 | 13.02154 | 42.64798 | 36790 ft | 519 kts | 165° |
| 2026-04-22 23:51 | 12.95366 | 42.67131 | 36782 ft | 518 kts | 167° |
| 2026-04-22 23:51 | 12.88491 | 42.69340 | 36796 ft | 517 kts | 167° |
| 2026-04-22 23:52 | 12.81624 | 42.71551 | 36792 ft | 517 kts | 167° |
| 2026-04-22 23:52 | 12.74760 | 42.73788 | 36799 ft | 518 kts | 166° |
| 2026-04-22 23:53 | 12.67950 | 42.76018 | 36796 ft | 517 kts | 166° |
| 2026-04-22 23:53 | 12.61092 | 42.78264 | 36806 ft | 517 kts | 166° |
| 2026-04-22 23:54 | 12.54231 | 42.80441 | 36811 ft | 516 kts | 168° |
| 2026-04-22 23:54 | 12.47322 | 42.82430 | 36811 ft | 515 kts | 168° |
| 2026-04-22 23:55 | 12.40455 | 42.84392 | 36818 ft | 516 kts | 168° |
| 2026-04-22 23:55 | 12.33554 | 42.86392 | 36834 ft | 516 kts | 168° |
| 2026-04-22 23:56 | 12.26651 | 42.88409 | 36828 ft | 516 kts | 168° |
| 2026-04-22 23:56 | 12.20916 | 42.90088 | 36837 ft | 516 kts | 168° |
| 2026-04-22 23:57 | 12.14016 | 42.92107 | 36837 ft | 516 kts | 168° |
| 2026-04-22 23:57 | 12.06002 | 42.94447 | 36842 ft | 515 kts | 168° |
| 2026-04-22 23:58 | 12.00271 | 42.96120 | 36841 ft | 515 kts | 168° |
| 2026-04-22 23:58 | 11.93380 | 42.98130 | 36837 ft | 515 kts | 168° |
| 2026-04-22 23:59 | 11.85370 | 43.00466 | 36837 ft | 515 kts | 168° |
| 2026-04-22 23:59 | 11.78485 | 43.02471 | 36834 ft | 514 kts | 167° |
| 2026-04-23 00:00 | 11.69327 | 43.05139 | 36831 ft | 514 kts | 167° |
| 2026-04-23 00:01 | 11.62447 | 43.07142 | 36829 ft | 514 kts | 167° |
| 2026-04-23 00:01 | 11.55587 | 43.09218 | 36823 ft | 516 kts | 162° |
| 2026-04-23 00:02 | 11.48999 | 43.12150 | 36822 ft | 517 kts | 158° |
| 2026-04-23 00:02 | 11.42538 | 43.15271 | 36828 ft | 517 kts | 157° |
| 2026-04-23 00:03 | 11.36052 | 43.18444 | 36828 ft | 517 kts | 157° |
| 2026-04-23 00:03 | 11.29608 | 43.21715 | 36826 ft | 518 kts | 156° |
| 2026-04-23 00:04 | 11.23189 | 43.25053 | 36827 ft | 518 kts | 156° |
| 2026-04-23 00:04 | 11.16810 | 43.28353 | 36823 ft | 518 kts | 156° |
| 2026-04-23 00:05 | 11.10375 | 43.31660 | 36820 ft | 518 kts | 156° |
| 2026-04-23 00:05 | 11.03935 | 43.34960 | 36824 ft | 518 kts | 156° |
| 2026-04-23 00:06 | 10.97544 | 43.38234 | 36825 ft | 518 kts | 156° |
| 2026-04-23 00:06 | 10.91096 | 43.41535 | 36827 ft | 520 kts | 156° |
| 2026-04-23 00:07 | 10.84632 | 43.44844 | 36821 ft | 521 kts | 156° |
| 2026-04-23 00:07 | 10.78157 | 43.48157 | 36823 ft | 521 kts | 156° |
| 2026-04-23 00:08 | 10.71680 | 43.51470 | 36827 ft | 521 kts | 156° |
| 2026-04-23 00:08 | 10.65244 | 43.54760 | 36826 ft | 521 kts | 156° |
| 2026-04-23 00:09 | 10.58768 | 43.58069 | 36834 ft | 521 kts | 156° |
| 2026-04-23 00:09 | 10.52284 | 43.61367 | 36832 ft | 521 kts | 157° |
| 2026-04-23 00:10 | 10.45785 | 43.64491 | 36839 ft | 520 kts | 158° |
| 2026-04-23 00:10 | 10.39218 | 43.67592 | 36833 ft | 521 kts | 158° |
| 2026-04-23 00:11 | 10.32648 | 43.70719 | 36848 ft | 521 kts | 158° |
| 2026-04-23 00:11 | 10.26089 | 43.73860 | 36868 ft | 521 kts | 158° |
| 2026-04-23 00:12 | 10.19530 | 43.77004 | 36862 ft | 521 kts | 158° |
| 2026-04-23 00:12 | 10.13017 | 43.80125 | 36878 ft | 521 kts | 158° |
| 2026-04-23 00:13 | 10.06454 | 43.83266 | 36879 ft | 521 kts | 158° |
| 2026-04-23 00:13 | 9.99905 | 43.86401 | 36892 ft | 520 kts | 158° |
| 2026-04-23 00:14 | 9.93355 | 43.89532 | 36892 ft | 520 kts | 158° |
| 2026-04-23 00:14 | 9.86854 | 43.92641 | 36905 ft | 520 kts | 158° |
| 2026-04-23 00:15 | 9.80309 | 43.95769 | 36906 ft | 520 kts | 158° |
| 2026-04-23 00:15 | 9.73765 | 43.98894 | 36916 ft | 519 kts | 157° |
| 2026-04-23 00:16 | 9.67230 | 44.02015 | 36920 ft | 519 kts | 157° |
| 2026-04-23 00:16 | 9.60742 | 44.05111 | 36919 ft | 519 kts | 157° |
| 2026-04-23 00:17 | 9.54203 | 44.08191 | 36914 ft | 518 kts | 160° |
| 2026-04-23 00:17 | 9.47338 | 44.10200 | 36917 ft | 513 kts | 170° |
| 2026-04-23 00:18 | 9.40362 | 44.11700 | 36919 ft | 512 kts | 172° |
| 2026-04-23 00:18 | 9.33418 | 44.13111 | 36918 ft | 512 kts | 172° |
| 2026-04-23 00:19 | 9.26429 | 44.14542 | 36919 ft | 512 kts | 171° |
| 2026-04-23 00:19 | 9.19446 | 44.15987 | 36912 ft | 512 kts | 171° |
| 2026-04-23 00:20 | 9.12466 | 44.17438 | 36906 ft | 512 kts | 171° |
| 2026-04-23 00:20 | 9.05536 | 44.18880 | 36910 ft | 512 kts | 171° |
| 2026-04-23 00:21 | 8.98561 | 44.20329 | 36901 ft | 512 kts | 171° |
| 2026-04-23 00:21 | 8.91586 | 44.21776 | 36902 ft | 511 kts | 171° |
| 2026-04-23 00:22 | 8.84686 | 44.23350 | 36900 ft | 512 kts | 169° |
| 2026-04-23 00:22 | 8.77771 | 44.25056 | 36897 ft | 511 kts | 168° |
| 2026-04-23 00:23 | 8.70855 | 44.26749 | 36897 ft | 511 kts | 169° |
| 2026-04-23 00:23 | 8.63935 | 44.28416 | 36890 ft | 511 kts | 169° |
| 2026-04-23 00:24 | 8.57026 | 44.30070 | 36888 ft | 510 kts | 169° |
| 2026-04-23 00:24 | 8.50167 | 44.31710 | 36885 ft | 510 kts | 169° |
| 2026-04-23 00:25 | 8.43262 | 44.33362 | 36883 ft | 510 kts | 169° |
| 2026-04-23 00:25 | 8.36355 | 44.35014 | 36882 ft | 510 kts | 169° |
| 2026-04-23 00:26 | 8.29447 | 44.36666 | 36880 ft | 510 kts | 169° |
| 2026-04-23 00:26 | 8.22589 | 44.38305 | 36874 ft | 510 kts | 169° |
| 2026-04-23 00:27 | 8.15681 | 44.39956 | 36876 ft | 510 kts | 169° |
| 2026-04-23 00:27 | 8.08776 | 44.41606 | 36871 ft | 510 kts | 169° |
| 2026-04-23 00:28 | 8.01873 | 44.43254 | 36871 ft | 510 kts | 169° |
| 2026-04-23 00:28 | 7.95015 | 44.44891 | 36873 ft | 510 kts | 169° |
| 2026-04-23 00:29 | 7.88112 | 44.46538 | 36872 ft | 510 kts | 169° |
| 2026-04-23 00:29 | 7.81207 | 44.48185 | 36866 ft | 510 kts | 169° |
| 2026-04-23 00:30 | 7.74300 | 44.49832 | 36867 ft | 510 kts | 169° |
| 2026-04-23 00:30 | 7.67440 | 44.51467 | 36871 ft | 510 kts | 169° |
| 2026-04-23 00:31 | 7.60532 | 44.53114 | 36872 ft | 510 kts | 169° |
| 2026-04-23 00:31 | 7.53626 | 44.54759 | 36868 ft | 510 kts | 169° |
| 2026-04-23 00:32 | 7.46719 | 44.56403 | 36876 ft | 510 kts | 169° |
| 2026-04-23 00:32 | 7.39858 | 44.58037 | 36875 ft | 510 kts | 169° |
| 2026-04-23 00:33 | 7.32948 | 44.59681 | 36873 ft | 510 kts | 169° |
| 2026-04-23 00:33 | 7.26039 | 44.61324 | 36874 ft | 510 kts | 169° |
| 2026-04-23 00:34 | 7.19175 | 44.62957 | 36871 ft | 510 kts | 169° |
| 2026-04-23 00:34 | 7.12266 | 44.64600 | 36875 ft | 510 kts | 169° |
| 2026-04-23 00:35 | 7.05361 | 44.66242 | 36879 ft | 510 kts | 169° |
| 2026-04-23 00:35 | 6.98454 | 44.67882 | 36873 ft | 510 kts | 168° |
| 2026-04-23 00:36 | 6.91554 | 44.69522 | 36870 ft | 509 kts | 168° |
| 2026-04-23 00:36 | 6.84703 | 44.71149 | 36872 ft | 509 kts | 168° |
| 2026-04-23 00:37 | 6.77804 | 44.72787 | 36866 ft | 509 kts | 168° |
| 2026-04-23 00:37 | 6.70906 | 44.74424 | 36866 ft | 509 kts | 168° |
| 2026-04-23 00:38 | 6.64019 | 44.76076 | 36867 ft | 509 kts | 168° |
| 2026-04-23 00:38 | 6.57176 | 44.77727 | 36860 ft | 509 kts | 168° |
| 2026-04-23 00:39 | 6.50289 | 44.79387 | 36859 ft | 509 kts | 168° |
| 2026-04-23 00:39 | 6.43403 | 44.81044 | 36859 ft | 509 kts | 168° |
| 2026-04-23 00:40 | 6.36517 | 44.82700 | 36859 ft | 509 kts | 168° |
| 2026-04-23 00:40 | 6.29676 | 44.84345 | 36857 ft | 509 kts | 168° |
| 2026-04-23 00:41 | 6.22788 | 44.86000 | 36857 ft | 509 kts | 168° |
| 2026-04-23 00:41 | 6.15896 | 44.87656 | 36857 ft | 509 kts | 168° |
| 2026-04-23 00:42 | 6.09047 | 44.89301 | 36850 ft | 509 kts | 168° |
| 2026-04-23 00:42 | 6.02157 | 44.90956 | 36852 ft | 509 kts | 168° |
| 2026-04-23 00:43 | 5.95259 | 44.92612 | 36851 ft | 509 kts | 168° |
| 2026-04-23 00:43 | 5.88366 | 44.94266 | 36852 ft | 509 kts | 168° |
| 2026-04-23 00:44 | 5.81533 | 44.95906 | 36851 ft | 508 kts | 168° |
| 2026-04-23 00:44 | 5.74655 | 44.97556 | 36847 ft | 508 kts | 168° |
| 2026-04-23 00:45 | 5.67771 | 44.99207 | 36849 ft | 508 kts | 168° |
| 2026-04-23 00:45 | 5.60894 | 45.00856 | 36854 ft | 508 kts | 168° |
| 2026-04-23 00:46 | 5.54057 | 45.02495 | 36848 ft | 508 kts | 168° |
| 2026-04-23 00:46 | 5.47177 | 45.04144 | 36849 ft | 509 kts | 168° |
| 2026-04-23 00:47 | 5.40295 | 45.05793 | 36848 ft | 509 kts | 168° |
| 2026-04-23 00:47 | 5.33408 | 45.07443 | 36847 ft | 508 kts | 168° |
| 2026-04-23 00:48 | 5.26528 | 45.09091 | 36847 ft | 508 kts | 168° |
| 2026-04-23 00:48 | 5.19694 | 45.10727 | 36851 ft | 508 kts | 168° |
| 2026-04-23 00:49 | 5.12814 | 45.12374 | 36848 ft | 508 kts | 168° |
| 2026-04-23 00:49 | 5.05856 | 45.13491 | 36841 ft | 506 kts | 177° |
| 2026-04-23 00:50 | 4.98831 | 45.13942 | 36843 ft | 506 kts | 179° |
| 2026-04-23 00:50 | 4.91845 | 45.14286 | 36839 ft | 506 kts | 179° |
| 2026-04-23 00:51 | 4.84814 | 45.14630 | 36837 ft | 506 kts | 179° |
| 2026-04-23 00:51 | 4.77776 | 45.14988 | 36840 ft | 506 kts | 179° |
| 2026-04-23 00:52 | 4.70738 | 45.15353 | 36837 ft | 507 kts | 179° |
| 2026-04-23 00:52 | 4.63744 | 45.15717 | 36834 ft | 507 kts | 179° |
| 2026-04-23 00:53 | 4.56705 | 45.16083 | 36837 ft | 507 kts | 179° |
| 2026-04-23 00:53 | 4.49666 | 45.16448 | 36833 ft | 507 kts | 179° |
| 2026-04-23 00:54 | 4.42623 | 45.16814 | 36833 ft | 507 kts | 179° |
| 2026-04-23 00:54 | 4.35634 | 45.17176 | 36836 ft | 506 kts | 179° |
| 2026-04-23 00:55 | 4.28595 | 45.17541 | 36833 ft | 506 kts | 179° |
| 2026-04-23 00:55 | 4.21555 | 45.17906 | 36827 ft | 506 kts | 179° |
| 2026-04-23 00:56 | 4.14514 | 45.18271 | 36828 ft | 507 kts | 179° |
| 2026-04-23 00:56 | 4.07525 | 45.18634 | 36834 ft | 507 kts | 179° |
| 2026-04-23 00:57 | 4.00480 | 45.18999 | 36834 ft | 507 kts | 179° |
| 2026-04-23 00:57 | 3.93447 | 45.19363 | 36832 ft | 506 kts | 179° |
| 2026-04-23 00:58 | 3.86417 | 45.19728 | 36830 ft | 506 kts | 179° |
| 2026-04-23 00:58 | 3.79429 | 45.20090 | 36832 ft | 506 kts | 179° |
| 2026-04-23 00:59 | 3.72403 | 45.20454 | 36835 ft | 505 kts | 179° |
| 2026-04-23 00:59 | 3.65380 | 45.20817 | 36835 ft | 505 kts | 179° |
| 2026-04-23 01:00 | 3.58358 | 45.21181 | 36831 ft | 505 kts | 179° |
| 2026-04-23 01:00 | 3.51381 | 45.21542 | 36835 ft | 505 kts | 179° |
| 2026-04-23 01:01 | 3.44357 | 45.21906 | 36837 ft | 505 kts | 179° |
| 2026-04-23 01:01 | 3.37341 | 45.22269 | 36838 ft | 505 kts | 179° |
| 2026-04-23 01:02 | 3.30325 | 45.22632 | 36830 ft | 505 kts | 179° |
| 2026-04-23 01:02 | 3.23306 | 45.22995 | 36836 ft | 505 kts | 179° |
| 2026-04-23 01:03 | 3.16351 | 45.23355 | 36830 ft | 504 kts | 179° |
| 2026-04-23 01:03 | 3.09354 | 45.23716 | 36834 ft | 503 kts | 179° |
| 2026-04-23 01:04 | 3.02355 | 45.24078 | 36833 ft | 503 kts | 179° |
| 2026-04-23 01:04 | 2.91908 | 45.24618 | 36835 ft | 503 kts | 179° |
| 2026-04-23 01:05 | 2.84912 | 45.24980 | 36833 ft | 503 kts | 179° |
| 2026-04-23 01:05 | 2.77915 | 45.25342 | 36831 ft | 503 kts | 179° |
| 2026-04-23 01:06 | 2.70923 | 45.25703 | 36826 ft | 503 kts | 178° |
| 2026-04-23 01:06 | 2.63922 | 45.26064 | 36834 ft | 504 kts | 178° |
| 2026-04-23 01:07 | 2.56971 | 45.26424 | 36833 ft | 504 kts | 178° |
| 2026-04-23 01:07 | 2.49970 | 45.26786 | 36842 ft | 504 kts | 178° |
| 2026-04-23 01:08 | 2.42973 | 45.27147 | 36828 ft | 504 kts | 178° |
| 2026-04-23 01:08 | 2.35966 | 45.27509 | 36829 ft | 504 kts | 178° |
| 2026-04-23 01:09 | 2.29002 | 45.27869 | 36837 ft | 504 kts | 178° |
| 2026-04-23 01:09 | 2.21995 | 45.28231 | 36840 ft | 504 kts | 178° |
| 2026-04-23 01:10 | 2.14983 | 45.28594 | 36824 ft | 504 kts | 178° |
| 2026-04-23 01:10 | 2.07972 | 45.28956 | 36828 ft | 505 kts | 178° |
| 2026-04-23 01:11 | 2.01031 | 45.29671 | 36825 ft | 506 kts | 168° |
| 2026-04-23 01:11 | 1.94375 | 45.31979 | 36836 ft | 508 kts | 159° |
| 2026-04-23 01:12 | 1.87866 | 45.34751 | 36833 ft | 509 kts | 157° |
| 2026-04-23 01:12 | 1.81374 | 45.37590 | 36819 ft | 510 kts | 157° |
| 2026-04-23 01:13 | 1.74914 | 45.40392 | 36814 ft | 510 kts | 158° |
| 2026-04-23 01:13 | 1.68401 | 45.43196 | 36830 ft | 510 kts | 158° |
| 2026-04-23 01:14 | 1.61883 | 45.45995 | 36834 ft | 510 kts | 158° |
| 2026-04-23 01:14 | 1.55370 | 45.48791 | 36831 ft | 509 kts | 158° |
| 2026-04-23 01:15 | 1.48906 | 45.51567 | 36813 ft | 509 kts | 158° |
| 2026-04-23 01:15 | 1.42398 | 45.54362 | 36823 ft | 509 kts | 158° |
| 2026-04-23 01:16 | 1.35886 | 45.57159 | 36825 ft | 509 kts | 158° |
| 2026-04-23 01:16 | 1.29388 | 45.59950 | 36826 ft | 508 kts | 158° |
| 2026-04-23 01:17 | 1.22936 | 45.62720 | 36823 ft | 508 kts | 158° |
| 2026-04-23 01:17 | 1.16446 | 45.65507 | 36821 ft | 508 kts | 158° |
| 2026-04-23 01:18 | 1.09956 | 45.68294 | 36826 ft | 508 kts | 158° |
| 2026-04-23 01:18 | 1.03469 | 45.71079 | 36826 ft | 507 kts | 158° |
| 2026-04-23 01:19 | 0.96987 | 45.73862 | 36826 ft | 507 kts | 158° |
| 2026-04-23 01:19 | 0.90555 | 45.76624 | 36819 ft | 507 kts | 158° |
| 2026-04-23 01:20 | 0.84078 | 45.79405 | 36823 ft | 507 kts | 158° |
| 2026-04-23 01:20 | 0.77600 | 45.82186 | 36818 ft | 506 kts | 158° |
| 2026-04-23 01:21 | 0.71130 | 45.84963 | 36826 ft | 506 kts | 158° |
| 2026-04-23 01:21 | 0.64702 | 45.87722 | 36826 ft | 506 kts | 158° |
| 2026-04-23 01:22 | 0.58232 | 45.90500 | 36820 ft | 506 kts | 158° |
| 2026-04-23 01:22 | 0.51770 | 45.93288 | 36822 ft | 506 kts | 157° |
| 2026-04-23 01:23 | 0.45324 | 45.96115 | 36821 ft | 506 kts | 157° |
| 2026-04-23 01:23 | 0.38925 | 45.98926 | 36823 ft | 506 kts | 157° |
| 2026-04-23 01:24 | 0.32479 | 46.01752 | 36821 ft | 506 kts | 157° |
| 2026-04-23 01:24 | 0.26034 | 46.04574 | 36816 ft | 506 kts | 157° |
| 2026-04-23 01:25 | 0.19585 | 46.07397 | 36821 ft | 506 kts | 157° |
| 2026-04-23 01:25 | 0.13181 | 46.10201 | 36820 ft | 506 kts | 157° |
| 2026-04-23 01:26 | 0.06733 | 46.13024 | 36823 ft | 506 kts | 157° |
| 2026-04-23 01:26 | 0.00285 | 46.15847 | 36826 ft | 506 kts | 157° |
| 2026-04-23 01:27 | -0.06165 | 46.18671 | 36825 ft | 506 kts | 157° |
| 2026-04-23 01:27 | -0.12572 | 46.21476 | 36823 ft | 506 kts | 157° |
| 2026-04-23 01:28 | -0.19018 | 46.24298 | 37009 ft | 505 kts | 157° |
| 2026-04-23 01:28 | -0.22231 | 46.25696 | 37318 ft | 503 kts | 158° |
| 2026-04-23 01:28 | -0.25439 | 46.27069 | 37632 ft | 501 kts | 158° |
| 2026-04-23 01:29 | -0.28649 | 46.28431 | 37810 ft | 502 kts | 158° |
| 2026-04-23 01:29 | -0.31876 | 46.29798 | 37825 ft | 504 kts | 158° |
| 2026-04-23 01:29 | -0.38284 | 46.32517 | 37826 ft | 504 kts | 158° |
| 2026-04-23 01:30 | -0.44731 | 46.35263 | 37825 ft | 504 kts | 158° |
| 2026-04-23 01:30 | -0.51182 | 46.38015 | 37821 ft | 504 kts | 158° |
| 2026-04-23 01:31 | -0.57631 | 46.40767 | 37826 ft | 504 kts | 158° |
| 2026-04-23 01:31 | -0.64079 | 46.43518 | 37827 ft | 504 kts | 158° |
| 2026-04-23 01:32 | -0.70486 | 46.46251 | 37822 ft | 504 kts | 158° |
| 2026-04-23 01:32 | -0.76931 | 46.49000 | 37828 ft | 504 kts | 158° |
| 2026-04-23 01:33 | -0.83379 | 46.51751 | 37826 ft | 504 kts | 158° |
| 2026-04-23 01:33 | -0.89833 | 46.54505 | 37829 ft | 505 kts | 158° |
| 2026-04-23 01:34 | -0.96248 | 46.57241 | 37823 ft | 505 kts | 158° |
| 2026-04-23 01:34 | -1.02708 | 46.59998 | 37826 ft | 505 kts | 158° |
| 2026-04-23 01:35 | -1.09165 | 46.62753 | 37824 ft | 505 kts | 158° |
| 2026-04-23 01:35 | -1.15624 | 46.65507 | 37827 ft | 506 kts | 158° |
| 2026-04-23 01:36 | -1.22058 | 46.68252 | 37819 ft | 506 kts | 158° |
| 2026-04-23 01:36 | -1.28533 | 46.71017 | 37830 ft | 506 kts | 158° |
| 2026-04-23 01:37 | -1.35009 | 46.73781 | 37825 ft | 506 kts | 158° |
| 2026-04-23 01:37 | -1.41485 | 46.76546 | 37826 ft | 506 kts | 159° |
| 2026-04-23 01:38 | -1.47919 | 46.79292 | 37824 ft | 506 kts | 159° |
| 2026-04-23 01:38 | -1.54391 | 46.82054 | 37827 ft | 506 kts | 159° |
| 2026-04-23 01:39 | -1.60865 | 46.84817 | 37829 ft | 506 kts | 159° |
| 2026-04-23 01:39 | -1.67337 | 46.87581 | 37835 ft | 506 kts | 159° |
| 2026-04-23 01:40 | -1.73792 | 46.90337 | 37830 ft | 504 kts | 159° |
| 2026-04-23 01:40 | -1.80191 | 46.93069 | 37828 ft | 503 kts | 159° |
| 2026-04-23 01:41 | -1.86629 | 46.95818 | 37829 ft | 503 kts | 159° |
| 2026-04-23 01:41 | -1.93066 | 46.98567 | 37830 ft | 503 kts | 159° |
| 2026-04-23 01:42 | -1.99511 | 47.01319 | 37829 ft | 503 kts | 158° |
| 2026-04-23 01:42 | -2.05903 | 47.04049 | 37835 ft | 503 kts | 158° |
| 2026-04-23 01:43 | -2.12335 | 47.06797 | 37838 ft | 503 kts | 158° |
| 2026-04-23 01:43 | -2.18771 | 47.09546 | 37835 ft | 503 kts | 158° |
| 2026-04-23 01:44 | -2.25206 | 47.12295 | 37835 ft | 503 kts | 158° |
| 2026-04-23 01:44 | -2.31600 | 47.15027 | 37833 ft | 503 kts | 158° |
| 2026-04-23 01:45 | -2.38034 | 47.17777 | 37833 ft | 503 kts | 158° |
| 2026-04-23 01:45 | -2.44470 | 47.20527 | 37838 ft | 503 kts | 158° |
| 2026-04-23 01:46 | -2.50913 | 47.23281 | 37840 ft | 504 kts | 158° |
| 2026-04-23 01:46 | -2.57315 | 47.26018 | 37839 ft | 504 kts | 158° |
| 2026-04-23 01:47 | -2.63756 | 47.28771 | 37841 ft | 503 kts | 158° |
| 2026-04-23 01:47 | -2.70200 | 47.31526 | 37836 ft | 503 kts | 158° |
| 2026-04-23 01:48 | -2.76636 | 47.34279 | 37841 ft | 503 kts | 158° |
| 2026-04-23 01:48 | -2.83037 | 47.37016 | 37832 ft | 503 kts | 158° |
| 2026-04-23 01:49 | -2.89479 | 47.39771 | 37834 ft | 504 kts | 158° |
| 2026-04-23 01:49 | -2.95926 | 47.42529 | 37832 ft | 504 kts | 158° |
| 2026-04-23 01:50 | -3.02376 | 47.45289 | 37833 ft | 504 kts | 158° |
| 2026-04-23 01:50 | -3.08775 | 47.48032 | 37844 ft | 504 kts | 158° |
| 2026-04-23 01:51 | -3.15222 | 47.50788 | 37839 ft | 503 kts | 158° |
| 2026-04-23 01:51 | -3.21662 | 47.53542 | 37842 ft | 503 kts | 158° |
| 2026-04-23 01:52 | -3.28100 | 47.56297 | 37835 ft | 503 kts | 158° |
| 2026-04-23 01:52 | -3.34540 | 47.59054 | 37840 ft | 503 kts | 158° |
| 2026-04-23 01:53 | -3.40934 | 47.61791 | 37842 ft | 503 kts | 158° |
| 2026-04-23 01:53 | -3.47372 | 47.64548 | 37837 ft | 503 kts | 158° |
| 2026-04-23 01:54 | -3.53807 | 47.67304 | 37841 ft | 503 kts | 158° |
| 2026-04-23 01:54 | -3.60240 | 47.70059 | 37836 ft | 503 kts | 158° |
| 2026-04-23 01:55 | -3.66631 | 47.72797 | 37843 ft | 503 kts | 158° |
| 2026-04-23 01:55 | -3.73057 | 47.75550 | 37845 ft | 502 kts | 158° |
| 2026-04-23 01:56 | -3.79480 | 47.78304 | 37839 ft | 502 kts | 158° |
| 2026-04-23 01:56 | -3.85900 | 47.81055 | 37846 ft | 502 kts | 158° |
| 2026-04-23 01:57 | -3.92324 | 47.83809 | 37844 ft | 502 kts | 158° |
| 2026-04-23 01:57 | -3.98703 | 47.86544 | 37847 ft | 503 kts | 158° |
| 2026-04-23 01:58 | -4.05144 | 47.89306 | 37844 ft | 504 kts | 158° |
| 2026-04-23 01:58 | -4.11592 | 47.92072 | 37850 ft | 504 kts | 158° |
| 2026-04-23 01:59 | -4.18035 | 47.94836 | 37849 ft | 504 kts | 158° |
| 2026-04-23 01:59 | -4.24440 | 47.97585 | 37843 ft | 504 kts | 158° |
| 2026-04-23 02:00 | -4.30900 | 48.00351 | 37850 ft | 506 kts | 158° |
| 2026-04-23 02:00 | -4.37383 | 48.03125 | 37855 ft | 507 kts | 158° |
| 2026-04-23 02:01 | -4.43871 | 48.05905 | 37846 ft | 507 kts | 158° |
| 2026-04-23 02:01 | -4.50313 | 48.08665 | 37851 ft | 507 kts | 158° |
| 2026-04-23 02:02 | -4.56801 | 48.11447 | 37857 ft | 508 kts | 158° |
| 2026-04-23 02:02 | -4.63311 | 48.14237 | 37848 ft | 509 kts | 158° |
| 2026-04-23 02:03 | -4.69825 | 48.17030 | 37853 ft | 509 kts | 158° |
| 2026-04-23 02:03 | -4.76298 | 48.19806 | 37848 ft | 509 kts | 158° |
| 2026-04-23 02:04 | -4.82810 | 48.22600 | 37848 ft | 509 kts | 158° |
| 2026-04-23 02:04 | -4.89332 | 48.25398 | 37857 ft | 510 kts | 158° |
| 2026-04-23 02:05 | -4.95853 | 48.28196 | 37853 ft | 510 kts | 158° |
| 2026-04-23 02:05 | -5.02382 | 48.30999 | 37857 ft | 510 kts | 158° |
| 2026-04-23 02:06 | -5.08862 | 48.33781 | 37857 ft | 510 kts | 158° |
| 2026-04-23 02:06 | -5.15389 | 48.36583 | 37859 ft | 510 kts | 158° |
| 2026-04-23 02:07 | -5.21924 | 48.39391 | 37863 ft | 511 kts | 158° |
| 2026-04-23 02:07 | -5.28465 | 48.42201 | 37860 ft | 511 kts | 158° |
| 2026-04-23 02:08 | -5.34961 | 48.44992 | 37857 ft | 511 kts | 158° |
| 2026-04-23 02:08 | -5.41506 | 48.47806 | 37859 ft | 512 kts | 158° |
| 2026-04-23 02:09 | -5.48051 | 48.50619 | 37861 ft | 512 kts | 158° |
| 2026-04-23 02:09 | -5.54597 | 48.53434 | 37860 ft | 512 kts | 158° |
| 2026-04-23 02:10 | -5.61098 | 48.56231 | 37860 ft | 512 kts | 158° |
| 2026-04-23 02:10 | -5.67648 | 48.59048 | 37859 ft | 512 kts | 158° |
| 2026-04-23 02:11 | -5.74193 | 48.61865 | 37850 ft | 513 kts | 158° |
| 2026-04-23 02:11 | -5.80761 | 48.64691 | 37857 ft | 514 kts | 158° |
| 2026-04-23 02:12 | -5.87290 | 48.67502 | 37856 ft | 514 kts | 158° |
| 2026-04-23 02:12 | -5.93871 | 48.70337 | 37863 ft | 515 kts | 158° |
| 2026-04-23 02:13 | -6.00453 | 48.73172 | 37861 ft | 515 kts | 158° |
| 2026-04-23 02:13 | -6.07033 | 48.76009 | 37860 ft | 514 kts | 159° |
| 2026-04-23 02:14 | -6.13611 | 48.78843 | 37861 ft | 515 kts | 159° |
| 2026-04-23 02:14 | -6.20150 | 48.81662 | 37865 ft | 515 kts | 159° |
| 2026-04-23 02:15 | -6.30017 | 48.85917 | 37870 ft | 515 kts | 159° |
| 2026-04-23 02:16 | -6.36587 | 48.88752 | 37868 ft | 512 kts | 159° |
| 2026-04-23 02:16 | -6.43129 | 48.91575 | 37873 ft | 512 kts | 159° |
| 2026-04-23 02:17 | -6.49629 | 48.94380 | 37870 ft | 511 kts | 159° |
| 2026-04-23 02:17 | -6.56165 | 48.97202 | 37868 ft | 512 kts | 159° |
| 2026-04-23 02:18 | -6.62706 | 49.00027 | 37863 ft | 511 kts | 159° |
| 2026-04-23 02:18 | -6.69215 | 49.02840 | 37863 ft | 508 kts | 159° |
| 2026-04-23 02:19 | -6.75663 | 49.05626 | 37868 ft | 508 kts | 159° |
| 2026-04-23 02:19 | -6.82158 | 49.08433 | 37866 ft | 508 kts | 159° |
| 2026-04-23 02:20 | -6.88659 | 49.11244 | 37874 ft | 509 kts | 159° |
| 2026-04-23 02:20 | -6.95153 | 49.14053 | 37871 ft | 507 kts | 159° |
| 2026-04-23 02:21 | -7.01587 | 49.16838 | 37872 ft | 506 kts | 159° |
| 2026-04-23 02:21 | -7.08057 | 49.19638 | 37871 ft | 506 kts | 159° |
| 2026-04-23 02:22 | -7.14530 | 49.22439 | 37872 ft | 506 kts | 159° |
| 2026-04-23 02:22 | -7.21003 | 49.25241 | 37879 ft | 506 kts | 159° |
| 2026-04-23 02:23 | -7.27462 | 49.28039 | 37874 ft | 504 kts | 159° |
| 2026-04-23 02:23 | -7.33861 | 49.30812 | 37876 ft | 504 kts | 159° |
| 2026-04-23 02:24 | -7.40314 | 49.33609 | 37876 ft | 505 kts | 159° |
| 2026-04-23 02:24 | -7.46770 | 49.36408 | 37877 ft | 505 kts | 159° |
| 2026-04-23 02:25 | -7.53224 | 49.39207 | 37875 ft | 504 kts | 159° |
| 2026-04-23 02:25 | -7.59628 | 49.41985 | 37875 ft | 504 kts | 159° |
| 2026-04-23 02:26 | -7.66068 | 49.44780 | 37880 ft | 504 kts | 159° |
| 2026-04-23 02:26 | -7.72503 | 49.47574 | 37879 ft | 504 kts | 159° |
| 2026-04-23 02:27 | -7.78941 | 49.50370 | 37877 ft | 504 kts | 159° |
| 2026-04-23 02:27 | -7.85372 | 49.53163 | 37879 ft | 503 kts | 159° |
| 2026-04-23 02:28 | -7.91756 | 49.55938 | 37881 ft | 503 kts | 159° |
| 2026-04-23 02:28 | -7.98192 | 49.58735 | 37881 ft | 504 kts | 159° |
| 2026-04-23 02:29 | -8.04628 | 49.61534 | 37881 ft | 504 kts | 159° |
| 2026-04-23 02:29 | -8.11062 | 49.64333 | 37884 ft | 503 kts | 159° |
| 2026-04-23 02:30 | -8.17433 | 49.67106 | 37879 ft | 501 kts | 159° |
| 2026-04-23 02:30 | -8.23834 | 49.69892 | 37884 ft | 501 kts | 159° |
| 2026-04-23 02:31 | -8.30234 | 49.72679 | 37881 ft | 501 kts | 159° |
| 2026-04-23 02:31 | -8.36634 | 49.75467 | 37880 ft | 501 kts | 159° |
| 2026-04-23 02:32 | -8.43004 | 49.78243 | 37882 ft | 503 kts | 159° |
| 2026-04-23 02:32 | -8.49426 | 49.81042 | 37881 ft | 503 kts | 159° |
| 2026-04-23 02:33 | -8.55849 | 49.83843 | 37880 ft | 503 kts | 159° |
| 2026-04-23 02:33 | -8.62271 | 49.86645 | 37881 ft | 503 kts | 159° |
| 2026-04-23 02:34 | -8.68692 | 49.89447 | 37883 ft | 503 kts | 159° |
| 2026-04-23 02:34 | -8.75059 | 49.92227 | 37881 ft | 501 kts | 159° |
| 2026-04-23 02:35 | -8.81456 | 49.95021 | 37884 ft | 501 kts | 159° |
| 2026-04-23 02:35 | -8.87852 | 49.97816 | 37885 ft | 501 kts | 159° |
| 2026-04-23 02:36 | -8.94259 | 50.00616 | 37884 ft | 502 kts | 159° |
| 2026-04-23 02:36 | -9.00628 | 50.03400 | 37891 ft | 502 kts | 159° |
| 2026-04-23 02:37 | -9.07026 | 50.06199 | 37885 ft | 500 kts | 159° |
| 2026-04-23 02:37 | -9.13412 | 50.08994 | 37887 ft | 500 kts | 159° |
| 2026-04-23 02:38 | -9.19792 | 50.11786 | 37886 ft | 500 kts | 159° |
| 2026-04-23 02:38 | -9.26128 | 50.14561 | 37886 ft | 499 kts | 159° |
| 2026-04-23 02:39 | -9.32507 | 50.17356 | 37889 ft | 499 kts | 159° |
| 2026-04-23 02:39 | -9.38878 | 50.20148 | 37890 ft | 499 kts | 159° |
| 2026-04-23 02:40 | -9.45253 | 50.22942 | 37888 ft | 500 kts | 159° |
| 2026-04-23 02:40 | -9.51636 | 50.25742 | 37889 ft | 500 kts | 159° |
| 2026-04-23 02:41 | -9.57975 | 50.28524 | 37889 ft | 500 kts | 159° |
| 2026-04-23 02:41 | -9.64363 | 50.31328 | 37889 ft | 500 kts | 159° |
| 2026-04-23 02:42 | -9.70737 | 50.34127 | 37892 ft | 499 kts | 159° |
| 2026-04-23 02:42 | -9.77067 | 50.36909 | 37892 ft | 499 kts | 159° |
| 2026-04-23 02:43 | -9.83439 | 50.39710 | 37893 ft | 499 kts | 159° |
| 2026-04-23 02:43 | -9.89813 | 50.42512 | 37891 ft | 499 kts | 158° |
| 2026-04-23 02:44 | -9.96189 | 50.45317 | 37893 ft | 500 kts | 158° |
| 2026-04-23 02:44 | -10.02563 | 50.48123 | 38181 ft | 498 kts | 159° |
| 2026-04-23 02:44 | -10.05694 | 50.49501 | 38514 ft | 496 kts | 159° |
| 2026-04-23 02:45 | -10.08855 | 50.50892 | 38743 ft | 495 kts | 159° |
| 2026-04-23 02:45 | -10.12016 | 50.52282 | 38870 ft | 496 kts | 158° |
| 2026-04-23 02:45 | -10.15189 | 50.53678 | 38896 ft | 497 kts | 159° |
| 2026-04-23 02:46 | -10.21536 | 50.56472 | 38894 ft | 497 kts | 159° |
| 2026-04-23 02:46 | -10.27871 | 50.59263 | 38894 ft | 496 kts | 158° |
| 2026-04-23 02:47 | -10.34152 | 50.62031 | 38888 ft | 495 kts | 158° |
| 2026-04-23 02:47 | -10.40475 | 50.64819 | 38889 ft | 495 kts | 158° |
| 2026-04-23 02:48 | -10.46807 | 50.67612 | 38895 ft | 497 kts | 158° |
| 2026-04-23 02:48 | -10.53151 | 50.70410 | 38903 ft | 497 kts | 158° |
| 2026-04-23 02:49 | -10.59440 | 50.73188 | 38897 ft | 496 kts | 158° |
| 2026-04-23 02:49 | -10.65760 | 50.75980 | 38896 ft | 495 kts | 158° |
| 2026-04-23 02:50 | -10.72083 | 50.78773 | 38892 ft | 495 kts | 158° |
| 2026-04-23 02:50 | -10.78404 | 50.81568 | 38897 ft | 495 kts | 159° |
| 2026-04-23 02:51 | -10.84722 | 50.84363 | 38901 ft | 494 kts | 159° |
| 2026-04-23 02:51 | -10.90963 | 50.87125 | 38899 ft | 492 kts | 158° |
| 2026-04-23 02:52 | -10.97243 | 50.89904 | 38897 ft | 493 kts | 158° |
| 2026-04-23 02:52 | -11.03534 | 50.92691 | 38900 ft | 493 kts | 159° |
| 2026-04-23 02:53 | -11.09829 | 50.95480 | 38901 ft | 493 kts | 158° |
| 2026-04-23 02:53 | -11.16081 | 50.98251 | 38903 ft | 493 kts | 158° |
| 2026-04-23 02:54 | -11.22351 | 51.01033 | 38904 ft | 490 kts | 159° |
| 2026-04-23 02:54 | -11.28598 | 51.03806 | 38906 ft | 489 kts | 159° |
| 2026-04-23 02:55 | -11.34844 | 51.06577 | 38904 ft | 490 kts | 159° |
| 2026-04-23 02:55 | -11.41053 | 51.09336 | 38906 ft | 490 kts | 159° |
| 2026-04-23 02:56 | -11.47304 | 51.12114 | 38901 ft | 490 kts | 159° |
| 2026-04-23 02:56 | -11.53547 | 51.14889 | 38905 ft | 490 kts | 158° |
| 2026-04-23 02:57 | -11.59796 | 51.17668 | 38911 ft | 490 kts | 158° |
| 2026-04-23 02:57 | -11.66003 | 51.20432 | 38908 ft | 490 kts | 159° |
| 2026-04-23 02:58 | -11.72248 | 51.23212 | 38908 ft | 490 kts | 158° |
| 2026-04-23 02:58 | -11.78490 | 51.25992 | 38909 ft | 489 kts | 158° |
| 2026-04-23 02:59 | -11.84722 | 51.28771 | 38907 ft | 488 kts | 158° |
| 2026-04-23 02:59 | -11.90895 | 51.31525 | 38911 ft | 487 kts | 159° |
| 2026-04-23 03:00 | -11.97114 | 51.34298 | 38911 ft | 488 kts | 159° |
| 2026-04-23 03:00 | -12.03350 | 51.37081 | 38916 ft | 489 kts | 158° |
| 2026-04-23 03:01 | -12.09581 | 51.39866 | 38914 ft | 488 kts | 159° |
| 2026-04-23 03:01 | -12.15754 | 51.42624 | 38914 ft | 487 kts | 158° |
| 2026-04-23 03:02 | -12.21974 | 51.45404 | 38914 ft | 488 kts | 159° |
| 2026-04-23 03:02 | -12.28190 | 51.48185 | 38916 ft | 488 kts | 158° |
| 2026-04-23 03:03 | -12.33352 | 51.50496 | 38916 ft | 487 kts | 158° |
| 2026-04-23 03:03 | -12.40572 | 51.53727 | 38917 ft | 487 kts | 158° |
| 2026-04-23 03:04 | -12.46768 | 51.56506 | 38916 ft | 485 kts | 158° |
| 2026-04-23 03:04 | -12.51894 | 51.58805 | 38921 ft | 484 kts | 158° |
| 2026-04-23 03:05 | -12.58081 | 51.61579 | 38924 ft | 486 kts | 158° |
| 2026-04-23 03:05 | -12.64277 | 51.64359 | 38922 ft | 486 kts | 158° |
| 2026-04-23 03:06 | -12.71460 | 51.67585 | 38908 ft | 483 kts | 158° |
| 2026-04-23 03:06 | -12.76566 | 51.69879 | 38916 ft | 482 kts | 157° |
| 2026-04-23 03:07 | -12.82714 | 51.72642 | 38933 ft | 483 kts | 158° |
| 2026-04-23 03:07 | -12.88864 | 51.75408 | 38931 ft | 482 kts | 158° |
| 2026-04-23 03:08 | -12.95003 | 51.78170 | 38930 ft | 482 kts | 158° |
| 2026-04-23 03:08 | -13.01108 | 51.80917 | 38935 ft | 483 kts | 157° |
| 2026-04-23 03:09 | -13.07251 | 51.83685 | 38939 ft | 481 kts | 158° |
| 2026-04-23 03:09 | -13.13367 | 51.86442 | 38924 ft | 480 kts | 157° |
| 2026-04-23 03:10 | -13.19489 | 51.89202 | 38935 ft | 481 kts | 157° |
| 2026-04-23 03:10 | -13.25627 | 51.91972 | 38930 ft | 481 kts | 158° |
| 2026-04-23 03:11 | -13.31702 | 51.94715 | 38933 ft | 478 kts | 157° |
| 2026-04-23 03:11 | -13.37802 | 51.97469 | 38931 ft | 479 kts | 157° |
| 2026-04-23 03:12 | -13.43912 | 52.00231 | 38930 ft | 479 kts | 157° |
| 2026-04-23 03:12 | -13.50011 | 52.02993 | 38938 ft | 478 kts | 157° |
| 2026-04-23 03:13 | -13.56061 | 52.05728 | 38934 ft | 479 kts | 157° |
| 2026-04-23 03:13 | -13.62177 | 52.08494 | 38943 ft | 481 kts | 157° |
| 2026-04-23 03:14 | -13.68276 | 52.11257 | 38936 ft | 478 kts | 157° |
| 2026-04-23 03:14 | -13.74312 | 52.13992 | 38943 ft | 478 kts | 157° |
| 2026-04-23 03:15 | -13.80405 | 52.16755 | 38937 ft | 480 kts | 157° |
| 2026-04-23 03:15 | -13.86508 | 52.19524 | 38938 ft | 478 kts | 157° |
| 2026-04-23 03:16 | -13.92583 | 52.22282 | 38939 ft | 477 kts | 157° |
| 2026-04-23 03:16 | -14.01671 | 52.26410 | 38938 ft | 478 kts | 157° |
| 2026-04-23 03:17 | -14.07752 | 52.29175 | 38943 ft | 477 kts | 157° |
| 2026-04-23 03:17 | -14.13829 | 52.31940 | 38940 ft | 478 kts | 157° |
| 2026-04-23 03:18 | -14.19923 | 52.34713 | 38938 ft | 480 kts | 157° |
| 2026-04-23 03:18 | -14.25976 | 52.37470 | 38941 ft | 478 kts | 156° |
| 2026-04-23 03:19 | -14.32055 | 52.40240 | 38943 ft | 478 kts | 156° |
| 2026-04-23 03:19 | -14.38143 | 52.43016 | 38943 ft | 479 kts | 156° |
| 2026-04-23 03:20 | -14.44234 | 52.45795 | 38945 ft | 478 kts | 156° |
| 2026-04-23 03:20 | -14.50267 | 52.48549 | 38943 ft | 477 kts | 156° |
| 2026-04-23 03:21 | -14.56345 | 52.51326 | 38945 ft | 478 kts | 156° |
| 2026-04-23 03:21 | -14.62434 | 52.54109 | 38952 ft | 479 kts | 156° |
| 2026-04-23 03:22 | -14.68510 | 52.56888 | 38943 ft | 477 kts | 156° |
| 2026-04-23 03:22 | -14.74551 | 52.59652 | 38944 ft | 479 kts | 156° |
| 2026-04-23 03:23 | -14.80661 | 52.62450 | 38945 ft | 479 kts | 156° |
| 2026-04-23 03:23 | -14.86744 | 52.65237 | 38947 ft | 478 kts | 156° |
| 2026-04-23 03:24 | -14.92823 | 52.68024 | 38947 ft | 478 kts | 156° |
| 2026-04-23 03:24 | -14.98882 | 52.70804 | 38948 ft | 479 kts | 156° |
| 2026-04-23 03:25 | -15.04960 | 52.73594 | 38948 ft | 477 kts | 156° |
| 2026-04-23 03:25 | -15.11032 | 52.76382 | 38951 ft | 478 kts | 156° |
| 2026-04-23 03:26 | -15.17117 | 52.79179 | 38950 ft | 479 kts | 156° |
| 2026-04-23 03:26 | -15.23155 | 52.81957 | 38951 ft | 477 kts | 156° |
| 2026-04-23 03:27 | -15.29223 | 52.84749 | 38951 ft | 477 kts | 156° |
| 2026-04-23 03:27 | -15.35308 | 52.87551 | 38954 ft | 479 kts | 156° |
| 2026-04-23 03:28 | -15.41391 | 52.90354 | 38954 ft | 477 kts | 156° |
| 2026-04-23 03:28 | -15.47419 | 52.93133 | 38954 ft | 478 kts | 156° |
| 2026-04-23 03:29 | -15.53497 | 52.95938 | 38959 ft | 479 kts | 156° |
| 2026-04-23 03:29 | -15.59570 | 52.98742 | 38957 ft | 476 kts | 156° |
| 2026-04-23 03:30 | -15.65623 | 53.01538 | 38958 ft | 477 kts | 156° |
| 2026-04-23 03:30 | -15.71659 | 53.04328 | 38963 ft | 479 kts | 156° |
| 2026-04-23 03:31 | -15.77745 | 53.07143 | 38962 ft | 478 kts | 156° |
| 2026-04-23 03:31 | -15.83812 | 53.09952 | 38961 ft | 478 kts | 156° |
| 2026-04-23 03:32 | -15.89898 | 53.12770 | 38962 ft | 480 kts | 156° |
| 2026-04-23 03:32 | -15.95935 | 53.15569 | 38962 ft | 478 kts | 156° |
| 2026-04-23 03:33 | -16.02005 | 53.18384 | 38967 ft | 478 kts | 156° |
| 2026-04-23 03:33 | -16.08091 | 53.21208 | 38968 ft | 480 kts | 156° |
| 2026-04-23 03:34 | -16.14168 | 53.24031 | 38966 ft | 477 kts | 156° |
| 2026-04-23 03:34 | -16.20175 | 53.26823 | 38965 ft | 477 kts | 156° |
| 2026-04-23 03:35 | -16.26249 | 53.29647 | 38968 ft | 479 kts | 156° |
| 2026-04-23 03:35 | -16.32319 | 53.32472 | 38967 ft | 478 kts | 156° |
| 2026-04-23 03:36 | -16.38376 | 53.35293 | 38967 ft | 478 kts | 156° |
| 2026-04-23 03:36 | -16.44409 | 53.38106 | 38966 ft | 479 kts | 156° |
| 2026-04-23 03:37 | -16.50480 | 53.40936 | 38967 ft | 478 kts | 156° |
| 2026-04-23 03:37 | -16.56541 | 53.43764 | 38969 ft | 477 kts | 156° |
| 2026-04-23 03:38 | -16.62612 | 53.46599 | 38973 ft | 479 kts | 156° |
| 2026-04-23 03:38 | -16.68642 | 53.49417 | 38971 ft | 477 kts | 156° |
| 2026-04-23 03:39 | -16.74699 | 53.52250 | 38978 ft | 477 kts | 156° |
| 2026-04-23 03:39 | -16.80752 | 53.55082 | 38976 ft | 478 kts | 156° |
| 2026-04-23 03:40 | -16.86812 | 53.57921 | 38977 ft | 477 kts | 156° |
| 2026-04-23 03:40 | -16.92858 | 53.60754 | 38977 ft | 477 kts | 156° |
| 2026-04-23 03:41 | -16.98872 | 53.63574 | 38981 ft | 478 kts | 156° |
| 2026-04-23 03:41 | -17.04933 | 53.66419 | 38980 ft | 476 kts | 156° |
| 2026-04-23 03:42 | -17.10971 | 53.69254 | 38982 ft | 476 kts | 156° |
| 2026-04-23 03:42 | -17.17015 | 53.72095 | 38983 ft | 476 kts | 156° |
| 2026-04-23 03:43 | -17.23013 | 53.74916 | 38991 ft | 476 kts | 156° |
| 2026-04-23 03:43 | -17.29058 | 53.77760 | 38987 ft | 476 kts | 156° |
| 2026-04-23 03:44 | -17.35104 | 53.80608 | 38989 ft | 477 kts | 156° |
| 2026-04-23 03:44 | -17.41147 | 53.83456 | 38988 ft | 475 kts | 156° |
| 2026-04-23 03:45 | -17.47135 | 53.86281 | 38990 ft | 476 kts | 156° |
| 2026-04-23 03:45 | -17.53178 | 53.89133 | 38992 ft | 476 kts | 156° |
| 2026-04-23 03:46 | -17.59214 | 53.91984 | 38993 ft | 476 kts | 156° |
| 2026-04-23 03:46 | -17.65249 | 53.94837 | 38993 ft | 476 kts | 156° |
| 2026-04-23 03:47 | -17.71246 | 53.97674 | 38990 ft | 476 kts | 156° |
| 2026-04-23 03:47 | -17.77284 | 54.00532 | 38993 ft | 476 kts | 156° |
| 2026-04-23 03:48 | -17.83325 | 54.03394 | 38991 ft | 477 kts | 156° |
| 2026-04-23 03:48 | -17.89373 | 54.06261 | 38988 ft | 477 kts | 156° |
| 2026-04-23 03:49 | -17.95377 | 54.09110 | 38993 ft | 476 kts | 156° |
| 2026-04-23 03:49 | -18.01412 | 54.11976 | 38996 ft | 476 kts | 156° |
| 2026-04-23 03:50 | -18.07452 | 54.14846 | 38996 ft | 476 kts | 156° |
| 2026-04-23 03:50 | -18.13492 | 54.17710 | 38997 ft | 476 kts | 156° |
| 2026-04-23 03:51 | -18.19495 | 54.20533 | 38998 ft | 476 kts | 156° |
| 2026-04-23 03:51 | -18.25549 | 54.23384 | 39000 ft | 476 kts | 156° |
| 2026-04-23 03:52 | -18.31591 | 54.26235 | 39001 ft | 476 kts | 156° |
| 2026-04-23 03:52 | -18.37642 | 54.29092 | 38999 ft | 477 kts | 156° |
| 2026-04-23 03:53 | -18.43664 | 54.31938 | 39002 ft | 477 kts | 156° |
| 2026-04-23 03:53 | -18.49714 | 54.34800 | 39004 ft | 477 kts | 156° |
| 2026-04-23 03:54 | -18.55769 | 54.37666 | 39005 ft | 478 kts | 156° |
| 2026-04-23 03:54 | -18.61825 | 54.40528 | 39008 ft | 477 kts | 157° |
| 2026-04-23 03:55 | -18.67979 | 54.42983 | 39007 ft | 476 kts | 160° |
| 2026-04-23 03:55 | -18.74202 | 54.45414 | 39012 ft | 477 kts | 160° |
| 2026-04-23 03:56 | -18.80405 | 54.47877 | 39006 ft | 476 kts | 160° |
| 2026-04-23 03:56 | -18.86603 | 54.50352 | 39017 ft | 477 kts | 159° |
| 2026-04-23 03:57 | -18.92769 | 54.52820 | 38817 ft | 474 kts | 159° |
| 2026-04-23 03:57 | -18.95823 | 54.54045 | 38456 ft | 466 kts | 159° |
| 2026-04-23 03:57 | -18.98838 | 54.55253 | 37884 ft | 462 kts | 159° |
| 2026-04-23 03:58 | -19.01844 | 54.56459 | 37238 ft | 461 kts | 159° |
| 2026-04-23 03:58 | -19.04836 | 54.57660 | 36604 ft | 459 kts | 159° |
| 2026-04-23 03:58 | -19.07817 | 54.58856 | 35979 ft | 458 kts | 159° |
| 2026-04-23 03:58 | -19.10791 | 54.60051 | 35332 ft | 457 kts | 159° |
| 2026-04-23 03:59 | -19.13735 | 54.61233 | 34620 ft | 459 kts | 160° |
| 2026-04-23 03:59 | -19.16723 | 54.62434 | 33862 ft | 461 kts | 160° |
| 2026-04-23 03:59 | -19.19731 | 54.63643 | 33047 ft | 462 kts | 159° |
| 2026-04-23 03:59 | -19.22737 | 54.64852 | 32276 ft | 463 kts | 159° |
| 2026-04-23 04:00 | -19.25731 | 54.66056 | 31732 ft | 459 kts | 159° |
| 2026-04-23 04:00 | -19.28702 | 54.67252 | 31201 ft | 455 kts | 159° |
| 2026-04-23 04:00 | -19.31646 | 54.68438 | 30656 ft | 451 kts | 159° |
| 2026-04-23 04:00 | -19.34574 | 54.69617 | 30116 ft | 448 kts | 159° |
| 2026-04-23 04:01 | -19.37435 | 54.70770 | 29519 ft | 444 kts | 159° |
| 2026-04-23 04:01 | -19.40308 | 54.71928 | 28969 ft | 440 kts | 159° |
| 2026-04-23 04:01 | -19.43149 | 54.73074 | 28438 ft | 435 kts | 159° |
| 2026-04-23 04:01 | -19.45966 | 54.74211 | 27919 ft | 431 kts | 159° |
| 2026-04-23 04:02 | -19.48759 | 54.75338 | 27401 ft | 428 kts | 159° |
| 2026-04-23 04:02 | -19.51531 | 54.76457 | 26892 ft | 425 kts | 159° |
| 2026-04-23 04:02 | -19.54276 | 54.77566 | 26374 ft | 421 kts | 159° |
| 2026-04-23 04:02 | -19.56961 | 54.78651 | 25885 ft | 417 kts | 159° |
| 2026-04-23 04:03 | -19.59626 | 54.79728 | 25387 ft | 415 kts | 159° |
| 2026-04-23 04:03 | -19.62327 | 54.80820 | 24880 ft | 414 kts | 159° |
| 2026-04-23 04:03 | -19.65002 | 54.81902 | 24380 ft | 410 kts | 159° |
| 2026-04-23 04:03 | -19.67660 | 54.82977 | 23874 ft | 407 kts | 159° |
| 2026-04-23 04:04 | -19.70292 | 54.84043 | 23330 ft | 404 kts | 159° |
| 2026-04-23 04:04 | -19.72904 | 54.85100 | 22780 ft | 399 kts | 159° |
| 2026-04-23 04:04 | -19.75487 | 54.86146 | 22297 ft | 396 kts | 158° |
| 2026-04-23 04:04 | -19.78067 | 54.87191 | 21775 ft | 395 kts | 158° |
| 2026-04-23 04:05 | -19.80621 | 54.88225 | 21276 ft | 391 kts | 158° |
| 2026-04-23 04:05 | -19.83116 | 54.89235 | 20777 ft | 386 kts | 157° |
| 2026-04-23 04:05 | -19.85610 | 54.90247 | 20278 ft | 383 kts | 157° |
| 2026-04-23 04:05 | -19.88091 | 54.91255 | 19766 ft | 381 kts | 157° |
| 2026-04-23 04:06 | -19.90562 | 54.92259 | 19273 ft | 380 kts | 157° |
| 2026-04-23 04:06 | -19.93029 | 54.93261 | 18752 ft | 379 kts | 157° |
| 2026-04-23 04:06 | -19.95484 | 54.94257 | 18242 ft | 376 kts | 157° |
| 2026-04-23 04:06 | -19.97922 | 54.95247 | 17686 ft | 373 kts | 156° |
| 2026-04-23 04:07 | -20.00299 | 54.96211 | 17185 ft | 368 kts | 156° |
| 2026-04-23 04:07 | -20.02675 | 54.97180 | 16677 ft | 365 kts | 157° |
| 2026-04-23 04:07 | -20.05041 | 54.98142 | 16197 ft | 363 kts | 156° |
| 2026-04-23 04:07 | -20.07397 | 54.99102 | 15687 ft | 362 kts | 157° |
| 2026-04-23 04:08 | -20.09746 | 55.00057 | 15191 ft | 361 kts | 157° |
| 2026-04-23 04:08 | -20.12076 | 55.01005 | 14692 ft | 357 kts | 156° |
| 2026-04-23 04:08 | -20.14386 | 55.01943 | 14213 ft | 354 kts | 155° |
| 2026-04-23 04:08 | -20.16674 | 55.02876 | 13684 ft | 351 kts | 155° |
| 2026-04-23 04:09 | -20.18907 | 55.03788 | 13199 ft | 347 kts | 156° |
| 2026-04-23 04:09 | -20.21155 | 55.04703 | 12699 ft | 345 kts | 155° |
| 2026-04-23 04:09 | -20.23389 | 55.05615 | 12215 ft | 342 kts | 157° |
| 2026-04-23 04:09 | -20.25606 | 55.06522 | 11726 ft | 341 kts | 157° |
| 2026-04-23 04:10 | -20.27815 | 55.07419 | 11292 ft | 336 kts | 155° |
| 2026-04-23 04:10 | -20.29950 | 55.08289 | 11153 ft | 321 kts | 156° |
| 2026-04-23 04:10 | -20.31982 | 55.09114 | 11027 ft | 305 kts | 155° |
| 2026-04-23 04:10 | -20.33918 | 55.09902 | 10897 ft | 291 kts | 155° |
| 2026-04-23 04:11 | -20.35764 | 55.10657 | 10786 ft | 277 kts | 155° |
| 2026-04-23 04:11 | -20.37507 | 55.11371 | 10640 ft | 269 kts | 156° |
| 2026-04-23 04:11 | -20.39247 | 55.12082 | 10453 ft | 265 kts | 155° |
| 2026-04-23 04:11 | -20.40960 | 55.12787 | 10160 ft | 264 kts | 156° |
| 2026-04-23 04:12 | -20.42685 | 55.13495 | 9860 ft | 271 kts | 156° |
| 2026-04-23 04:12 | -20.44494 | 55.14239 | 9764 ft | 283 kts | 156° |
| 2026-04-23 04:12 | -20.46323 | 55.14986 | 9397 ft | 281 kts | 156° |
| 2026-04-23 04:12 | -20.48153 | 55.15734 | 8890 ft | 281 kts | 156° |
| 2026-04-23 04:13 | -20.49976 | 55.16480 | 8515 ft | 280 kts | 156° |
| 2026-04-23 04:13 | -20.51767 | 55.17212 | 8206 ft | 279 kts | 156° |
| 2026-04-23 04:13 | -20.53570 | 55.17949 | 7883 ft | 277 kts | 156° |
| 2026-04-23 04:13 | -20.55362 | 55.18683 | 7564 ft | 276 kts | 156° |
| 2026-04-23 04:14 | -20.57136 | 55.19410 | 7259 ft | 275 kts | 156° |
| 2026-04-23 04:14 | -20.58915 | 55.20138 | 6956 ft | 273 kts | 156° |
| 2026-04-23 04:14 | -20.60681 | 55.20863 | 6653 ft | 271 kts | 156° |
| 2026-04-23 04:14 | -20.62439 | 55.21583 | 6329 ft | 270 kts | 156° |
| 2026-04-23 04:15 | -20.64188 | 55.22299 | 6008 ft | 268 kts | 156° |
| 2026-04-23 04:15 | -20.65904 | 55.23004 | 5718 ft | 267 kts | 156° |
| 2026-04-23 04:15 | -20.69344 | 55.24415 | 5123 ft | 262 kts | 156° |
| 2026-04-23 04:16 | -20.71008 | 55.25096 | 4808 ft | 248 kts | 156° |
| 2026-04-23 04:16 | -20.72567 | 55.25733 | 4536 ft | 232 kts | 156° |
| 2026-04-23 04:16 | -20.74060 | 55.26346 | 4420 ft | 229 kts | 155° |
| 2026-04-23 04:16 | -20.75535 | 55.26952 | 4290 ft | 225 kts | 155° |
| 2026-04-23 04:17 | -20.76974 | 55.27578 | 4178 ft | 221 kts | 149° |
| 2026-04-23 04:17 | -20.78116 | 55.28557 | 4112 ft | 203 kts | 124° |
| 2026-04-23 04:17 | -20.78801 | 55.29778 | 4037 ft | 184 kts | 117° |
| 2026-04-23 04:17 | -20.79351 | 55.30946 | 3966 ft | 168 kts | 116° |
| 2026-04-23 04:18 | -20.79852 | 55.32034 | 3766 ft | 160 kts | 116° |
| 2026-04-23 04:18 | -20.80342 | 55.33081 | 3513 ft | 155 kts | 116° |
| 2026-04-23 04:18 | -20.80815 | 55.34095 | 3293 ft | 150 kts | 116° |
| 2026-04-23 04:18 | -20.81275 | 55.35082 | 3087 ft | 146 kts | 116° |
| 2026-04-23 04:19 | -20.81717 | 55.36029 | 2876 ft | 138 kts | 116° |
| 2026-04-23 04:19 | -20.82131 | 55.36919 | 2718 ft | 135 kts | 115° |
| 2026-04-23 04:19 | -20.82550 | 55.37818 | 2558 ft | 135 kts | 116° |
| 2026-04-23 04:19 | -20.82966 | 55.38710 | 2377 ft | 133 kts | 116° |
| 2026-04-23 04:20 | -20.83371 | 55.39579 | 2208 ft | 129 kts | 116° |
| 2026-04-23 04:20 | -20.83769 | 55.40433 | 2045 ft | 128 kts | 116° |
| 2026-04-23 04:20 | -20.84166 | 55.41285 | 1883 ft | 128 kts | 116° |
| 2026-04-23 04:20 | -20.84562 | 55.42135 | 1710 ft | 128 kts | 117° |
| 2026-04-23 04:21 | -20.84958 | 55.42983 | 1546 ft | 127 kts | 117° |
| 2026-04-23 04:21 | -20.85345 | 55.43819 | 1390 ft | 127 kts | 116° |
| 2026-04-23 04:21 | -20.85734 | 55.44662 | 1242 ft | 127 kts | 117° |
| 2026-04-23 04:21 | -20.86130 | 55.45504 | 1062 ft | 127 kts | 117° |
| 2026-04-23 04:22 | -20.86522 | 55.46345 | 906 ft | 126 kts | 115° |
| 2026-04-23 04:22 | -20.86885 | 55.47186 | 739 ft | 124 kts | 114° |
| 2026-04-23 04:22 | -20.87257 | 55.48038 | 584 ft | 129 kts | 118° |
| 2026-04-23 04:22 | -20.87693 | 55.48884 | 385 ft | 128 kts | 119° |
| 2026-04-23 04:23 | -20.88093 | 55.49728 | 227 ft | 129 kts | 115° |
| 2026-04-23 04:23 | -20.88504 | 55.50593 | 88 ft | 131 kts | 116° |
| 2026-04-23 04:23 | -20.88878 | 55.51400 | 63 ft | 104 kts | 117° |
| 2026-04-23 04:23 | -20.89122 | 55.51920 | 61 ft | 52 kts | 116° |
| 2026-04-23 04:24 | -20.89235 | 55.52162 | 66 ft | 31 kts | 117° |
| 2026-04-23 04:24 | -20.89369 | 55.52190 | 90 ft | 16 kts | 210° |
| 2026-04-23 04:24 | -20.89390 | 55.52099 | 94 ft | 14 kts | 288° |
| 2026-04-23 04:24 | -20.89341 | 55.51990 | 95 ft | 18 kts | 296° |
| 2026-04-23 04:25 | -20.89285 | 55.51871 | 92 ft | 14 kts | 297° |
| 2026-04-23 04:25 | -20.89234 | 55.51763 | 92 ft | 18 kts | 296° |
| 2026-04-23 04:25 | -20.89184 | 55.51657 | 90 ft | 16 kts | 296° |
| 2026-04-23 04:25 | -20.89133 | 55.51547 | 91 ft | 17 kts | 296° |
| 2026-04-23 04:26 | -20.89077 | 55.51428 | 82 ft | 13 kts | 296° |
| 2026-04-23 04:26 | -20.89049 | 55.51359 | 86 ft | 7 kts | 276° |
| 2026-04-23 04:26 | -20.89078 | 55.51318 | 85 ft | 9 kts | 221° |
| 2026-04-23 04:26 | -20.89094 | 55.51306 | 85 ft | 1 kts | 217° |
| 2026-04-23 04:27 | -20.89100 | 55.51299 | 85 ft | 1 kts | 220° |
| 2026-04-23 04:27 | -20.89104 | 55.51298 | 85 ft | 0 kts | 210° |
| 2026-04-23 04:27 | -20.89107 | 55.51296 | 81 ft | 0 kts | 210° |